Darstellungsparameter: Aktuell verwendete Einstellungen:
Skalierung der Graphiken ... ?
xyx+y,   Skalierungsfaktor:      Skalierung: Modus: x, Faktor: 1
Darstellungszeitraum ... ?
Vom - - bis: - -   Zeitraum: 29.06.2020 - 03.07.2020
Min/Max/Avg-Anzeige ... ?
Zeige MMA aktuell
Zeige MMA Monat
Zeige MMA alles
Zeige --A aktuell
Zeige --A Monat
Zeige --A alles
Keine MMA-Anzeige
MMA:
Average (ber die Originaldaten)
MMA-Basis: 29.06.2020 - 03.07.2020
Quicknavigation für Darstellung... ?
Tage:      1T, 2T, 3T, 5T -1T -2T -3T -5T +1T +2T +3T +5T
Wochen: 1W, 2W, 3W -1W -2W -3W +1W +2W +3W
Monate: 1M, 3M, 6M -1M -3M -6M +1M +3M +6M
Jahre:    1J, 3J, 5J, 10J -1J -3J -5J -10J +1J +3J +5J +10J
Nutze für die Darstellung ... ?
Originaldaten oder Mittelwerte auf ...
Stundenbasis Tagesbasis Wochenbasis
Monatsbasis Jahresbasis      Datenbasis: Original-Daten
Darstellen als:
Statistik (Auto) Statistik J:M      Darstellung:
Zur Graphik,    zurück zur Übersicht aller Sensoren.
 
Tabellarische Datenbersicht: ?
 
Sensor: Nr:Datum:Temp:Abs-Feuchte:Windchill:Wind:
Aussen-T/F 1 29-06-2020 00:00:00 15.1 C 10.84 g/m*3 15.1 C 3.2 km/h
2 29-06-2020 00:05:00 15.1 C 10.84 g/m*3 15.1 C 3.2 km/h
3 29-06-2020 00:10:00 15 C 10.77 g/m*3 15 C 3.2 km/h
4 29-06-2020 00:15:00 15 C 10.77 g/m*3 15 C 6.4 km/h
5 29-06-2020 00:20:00 15.1 C 10.84 g/m*3 15.1 C 3.2 km/h
6 29-06-2020 00:25:00 15.1 C 10.84 g/m*3 15.1 C 3.2 km/h
7 29-06-2020 00:30:00 15.1 C 10.84 g/m*3 15.1 C 3.2 km/h
8 29-06-2020 00:35:00 15.1 C 10.84 g/m*3 15.1 C 6.4 km/h
9 29-06-2020 00:40:00 15.1 C 10.84 g/m*3 15.1 C 3.2 km/h
10 29-06-2020 00:45:00 15.1 C 10.84 g/m*3 15.1 C 3.2 km/h
11 29-06-2020 00:50:00 15 C 10.77 g/m*3 15 C 4.8 km/h
12 29-06-2020 00:55:00 15 C 10.9 g/m*3 15 C 3.2 km/h
13 29-06-2020 01:00:00 15 C 10.9 g/m*3 15 C 4.8 km/h
14 29-06-2020 01:05:00 15 C 10.9 g/m*3 15 C 3.2 km/h
15 29-06-2020 01:10:00 15 C 10.9 g/m*3 15 C 3.2 km/h
16 29-06-2020 01:15:00 14.9 C 10.83 g/m*3 14.9 C 0 km/h
17 29-06-2020 01:20:00 14.9 C 10.83 g/m*3 14.9 C 0 km/h
18 29-06-2020 01:25:00 14.8 C 10.77 g/m*3 14.8 C 0 km/h
19 29-06-2020 01:30:00 14.8 C 10.77 g/m*3 14.8 C 0 km/h
20 29-06-2020 01:35:00 14.7 C 10.7 g/m*3 14.7 C 0 km/h
21 29-06-2020 01:40:00 14.5 C 10.7 g/m*3 14.5 C 0 km/h
22 29-06-2020 01:45:00 14.4 C 10.63 g/m*3 14.4 C 0 km/h
23 29-06-2020 01:50:00 14.2 C 10.5 g/m*3 14.2 C 0 km/h
24 29-06-2020 01:55:00 14.2 C 10.62 g/m*3 14.2 C 1.6 km/h
25 29-06-2020 02:00:00 14.1 C 10.56 g/m*3 14.1 C 1.6 km/h
Sensor: Nr:Datum:Temp:Abs-Feuchte:Windchill:Wind:
Aussen-T/F 26 29-06-2020 02:05:00 13.9 C 10.55 g/m*3 13.9 C 4.8 km/h
27 29-06-2020 02:10:00 13.9 C 10.55 g/m*3 13.9 C 3.2 km/h
28 29-06-2020 02:15:00 13.9 C 10.55 g/m*3 13.9 C 1.6 km/h
29 29-06-2020 02:20:00 13.8 C 10.6 g/m*3 13.8 C 1.6 km/h
30 29-06-2020 02:25:00 13.8 C 10.6 g/m*3 13.8 C 4.8 km/h
31 29-06-2020 02:30:00 13.8 C 10.6 g/m*3 13.8 C 1.6 km/h
32 29-06-2020 02:35:00 13.8 C 10.6 g/m*3 13.8 C 0 km/h
33 29-06-2020 02:40:00 13.8 C 10.72 g/m*3 13.8 C 0 km/h
34 29-06-2020 02:45:00 13.8 C 10.72 g/m*3 13.8 C 0 km/h
35 29-06-2020 02:50:00 13.8 C 10.72 g/m*3 13.8 C 0 km/h
36 29-06-2020 02:55:00 13.8 C 10.72 g/m*3 13.8 C 0 km/h
37 29-06-2020 03:00:00 13.8 C 10.72 g/m*3 13.8 C 0 km/h
38 29-06-2020 03:05:00 13.8 C 10.72 g/m*3 13.8 C 0 km/h
39 29-06-2020 03:10:00 13.9 C 10.79 g/m*3 13.9 C 3.2 km/h
40 29-06-2020 03:15:00 13.9 C 10.79 g/m*3 13.9 C 4.8 km/h
41 29-06-2020 03:20:00 13.9 C 10.91 g/m*3 13.9 C 4.8 km/h
42 29-06-2020 03:25:00 14.1 C 11.04 g/m*3 14.1 C 1.6 km/h
43 29-06-2020 03:30:00 14.1 C 11.04 g/m*3 14.1 C 1.6 km/h
44 29-06-2020 03:35:00 14.1 C 10.92 g/m*3 14.1 C 0 km/h
45 29-06-2020 03:40:00 14.1 C 10.92 g/m*3 14.1 C 0 km/h
46 29-06-2020 03:45:00 14.1 C 10.92 g/m*3 14.1 C 0 km/h
47 29-06-2020 03:50:00 13.9 C 10.79 g/m*3 13.9 C 0 km/h
48 29-06-2020 03:55:00 13.9 C 10.79 g/m*3 13.9 C 1.6 km/h
49 29-06-2020 04:00:00 13.8 C 10.72 g/m*3 13.8 C 0 km/h
50 29-06-2020 04:05:00 13.8 C 10.84 g/m*3 13.8 C 3.2 km/h
Sensor: Nr:Datum:Temp:Abs-Feuchte:Windchill:Wind:
Aussen-T/F 51 29-06-2020 04:10:00 13.9 C 10.91 g/m*3 13.9 C 0 km/h
52 29-06-2020 04:15:00 14 C 10.98 g/m*3 14 C 0 km/h
53 29-06-2020 04:20:00 14.1 C 11.04 g/m*3 14.1 C 0 km/h
54 29-06-2020 04:25:00 14.1 C 11.17 g/m*3 14.1 C 0 km/h
55 29-06-2020 04:30:00 14.2 C 11.11 g/m*3 14.2 C 0 km/h
56 29-06-2020 04:35:00 14.2 C 11.11 g/m*3 14.2 C 1.6 km/h
57 29-06-2020 04:40:00 14.2 C 11.11 g/m*3 14.2 C 1.6 km/h
58 29-06-2020 04:45:00 14.3 C 11.18 g/m*3 14.3 C 0 km/h
59 29-06-2020 04:50:00 14.3 C 11.18 g/m*3 14.3 C 0 km/h
60 29-06-2020 04:55:00 14.3 C 11.18 g/m*3 14.3 C 3.2 km/h
61 29-06-2020 05:00:00 14.4 C 11.25 g/m*3 14.4 C 3.2 km/h
62 29-06-2020 05:05:00 14.5 C 11.32 g/m*3 14.5 C 4.8 km/h
63 29-06-2020 05:10:00 14.6 C 11.39 g/m*3 14.6 C 3.2 km/h
64 29-06-2020 05:15:00 14.7 C 11.33 g/m*3 14.7 C 4.8 km/h
65 29-06-2020 05:20:00 14.8 C 11.27 g/m*3 14.8 C 1.6 km/h
66 29-06-2020 05:25:00 14.9 C 11.34 g/m*3 14.9 C 4.8 km/h
67 29-06-2020 05:30:00 15.1 C 11.35 g/m*3 15.1 C 1.6 km/h
68 29-06-2020 05:35:00 15.1 C 11.35 g/m*3 15.1 C 3.2 km/h
69 29-06-2020 05:40:00 15.2 C 11.42 g/m*3 15.2 C 1.6 km/h
70 29-06-2020 05:45:00 15.2 C 11.42 g/m*3 15.2 C 4.8 km/h
71 29-06-2020 05:50:00 15.2 C 11.29 g/m*3 15.2 C 1.6 km/h
72 29-06-2020 05:55:00 15.2 C 11.29 g/m*3 15.2 C 3.2 km/h
73 29-06-2020 06:00:00 15.2 C 11.29 g/m*3 15.2 C 3.2 km/h
74 29-06-2020 06:05:00 15.3 C 11.36 g/m*3 15.3 C 4.8 km/h
75 29-06-2020 06:10:00 15.3 C 11.36 g/m*3 15.3 C 1.6 km/h
Sensor: Nr:Datum:Temp:Abs-Feuchte:Windchill:Wind:
Aussen-T/F 76 29-06-2020 06:15:00 15.2 C 11.29 g/m*3 15.2 C 4.8 km/h
77 29-06-2020 06:20:00 15.3 C 11.36 g/m*3 15.3 C 4.8 km/h
78 29-06-2020 06:25:00 15.3 C 11.36 g/m*3 15.3 C 1.6 km/h
79 29-06-2020 06:30:00 15.4 C 11.43 g/m*3 15.4 C 3.2 km/h
80 29-06-2020 06:35:00 15.4 C 11.43 g/m*3 15.4 C 4.8 km/h
81 29-06-2020 06:40:00 15.5 C 11.5 g/m*3 15.5 C 3.2 km/h
82 29-06-2020 06:45:00 15.6 C 11.44 g/m*3 15.6 C 6.4 km/h
83 29-06-2020 06:50:00 15.7 C 11.51 g/m*3 15.7 C 8.1 km/h
84 29-06-2020 06:55:00 15.8 C 11.58 g/m*3 15.8 C 3.2 km/h
85 29-06-2020 07:00:00 15.8 C 11.58 g/m*3 15.8 C 0 km/h
86 29-06-2020 07:05:00 15.9 C 11.65 g/m*3 15.9 C 0 km/h
87 29-06-2020 07:10:00 16 C 11.72 g/m*3 16 C 1.6 km/h
88 29-06-2020 07:15:00 16.1 C 11.65 g/m*3 16.1 C 3.2 km/h
89 29-06-2020 07:20:00 16.2 C 11.72 g/m*3 16.2 C 1.6 km/h
90 29-06-2020 07:25:00 16.3 C 11.65 g/m*3 16.3 C 0 km/h
91 29-06-2020 07:30:00 16.4 C 11.72 g/m*3 16.4 C 1.6 km/h
92 29-06-2020 07:35:00 16.5 C 11.8 g/m*3 16.5 C 1.6 km/h
93 29-06-2020 07:40:00 16.6 C 11.87 g/m*3 16.6 C 1.6 km/h
94 29-06-2020 07:45:00 16.8 C 11.87 g/m*3 16.8 C 3.2 km/h
95 29-06-2020 07:50:00 16.9 C 11.94 g/m*3 16.9 C 1.6 km/h
96 29-06-2020 07:55:00 17.1 C 11.94 g/m*3 17.1 C 4.8 km/h
97 29-06-2020 08:00:00 17.2 C 12.01 g/m*3 17.2 C 6.4 km/h
98 29-06-2020 08:05:00 17.2 C 11.86 g/m*3 17.2 C 8.1 km/h
99 29-06-2020 08:10:00 17.2 C 11.86 g/m*3 17.2 C 4.8 km/h
100 29-06-2020 08:15:00 17.2 C 11.86 g/m*3 17.2 C 4.8 km/h
Sensor: Nr:Datum:Temp:Abs-Feuchte:Windchill:Wind:
Aussen-T/F 101 29-06-2020 08:20:00 17.2 C 11.86 g/m*3 17.2 C 4.8 km/h
102 29-06-2020 08:25:00 17.1 C 11.94 g/m*3 17.1 C 6.4 km/h
103 29-06-2020 08:30:00 17.1 C 11.94 g/m*3 17.1 C 8.1 km/h
104 29-06-2020 08:35:00 17 C 11.87 g/m*3 17 C 12.9 km/h
105 29-06-2020 08:40:00 16.5 C 9.83 g/m*3 16.5 C 22.5 km/h
106 29-06-2020 08:45:00 15.9 C 9.62 g/m*3 15.9 C 12.9 km/h
107 29-06-2020 08:50:00 14.8 C 9.75 g/m*3 14.8 C 20.9 km/h
108 29-06-2020 08:55:00 13.8 C 9.77 g/m*3 13.8 C 12.9 km/h
109 29-06-2020 09:00:00 13.3 C 9.82 g/m*3 13.3 C 8.1 km/h
110 29-06-2020 09:05:00 13.1 C 10.04 g/m*3 13.1 C 6.4 km/h
111 29-06-2020 09:10:00 12.8 C 9.97 g/m*3 12.8 C 12.9 km/h
112 29-06-2020 09:15:00 12.6 C 9.85 g/m*3 12.6 C 11.3 km/h
113 29-06-2020 09:20:00 12.4 C 9.94 g/m*3 12.4 C 6.4 km/h
114 29-06-2020 09:25:00 12.4 C 10.05 g/m*3 12.4 C 9.7 km/h
115 29-06-2020 09:30:00 12.4 C 10.05 g/m*3 12.4 C 4.8 km/h
116 29-06-2020 09:35:00 12.3 C 9.99 g/m*3 12.3 C 6.4 km/h
117 29-06-2020 09:40:00 12.3 C 9.99 g/m*3 12.3 C 9.7 km/h
118 29-06-2020 09:45:00 12.2 C 10.04 g/m*3 12.2 C 4.8 km/h
119 29-06-2020 09:50:00 12.2 C 10.04 g/m*3 12.2 C 4.8 km/h
120 29-06-2020 09:55:00 12.2 C 10.04 g/m*3 12.2 C 3.2 km/h
121 29-06-2020 10:00:00 12.2 C 10.04 g/m*3 12.2 C 6.4 km/h
122 29-06-2020 10:05:00 12.3 C 10.21 g/m*3 12.3 C 4.8 km/h
123 29-06-2020 10:10:00 12.4 C 10.27 g/m*3 12.4 C 0 km/h
124 29-06-2020 10:15:00 12.6 C 10.4 g/m*3 12.6 C 0 km/h
125 29-06-2020 10:20:00 12.9 C 10.71 g/m*3 12.9 C 1.6 km/h
Sensor: Nr:Datum:Temp:Abs-Feuchte:Windchill:Wind:
Aussen-T/F 126 29-06-2020 10:25:00 13.2 C 10.91 g/m*3 13.2 C 3.2 km/h
127 29-06-2020 10:30:00 13.4 C 10.93 g/m*3 13.4 C 0 km/h
128 29-06-2020 10:35:00 13.7 C 11.25 g/m*3 13.7 C 0 km/h
129 29-06-2020 10:40:00 13.8 C 11.08 g/m*3 13.8 C 1.6 km/h
130 29-06-2020 10:45:00 14 C 11.22 g/m*3 14 C 3.2 km/h
131 29-06-2020 10:50:00 14.2 C 11.23 g/m*3 14.2 C 6.4 km/h
132 29-06-2020 10:55:00 14.4 C 11.25 g/m*3 14.4 C 6.4 km/h
133 29-06-2020 11:00:00 14.6 C 11.26 g/m*3 14.6 C 6.4 km/h
134 29-06-2020 11:05:00 14.8 C 11.4 g/m*3 14.8 C 4.8 km/h
135 29-06-2020 11:10:00 15 C 11.41 g/m*3 15 C 4.8 km/h
136 29-06-2020 11:15:00 15.2 C 11.42 g/m*3 15.2 C 4.8 km/h
137 29-06-2020 11:20:00 15.5 C 11.5 g/m*3 15.5 C 8.1 km/h
138 29-06-2020 11:25:00 15.7 C 11.51 g/m*3 15.7 C 6.4 km/h
139 29-06-2020 11:30:00 15.8 C 11.58 g/m*3 15.8 C 4.8 km/h
140 29-06-2020 11:35:00 16.1 C 11.79 g/m*3 16.1 C 8.1 km/h
141 29-06-2020 11:40:00 16.3 C 11.79 g/m*3 16.3 C 6.4 km/h
142 29-06-2020 11:45:00 16.6 C 11.87 g/m*3 16.6 C 9.7 km/h
143 29-06-2020 11:50:00 16.7 C 11.8 g/m*3 16.7 C 8.1 km/h
144 29-06-2020 11:55:00 16.9 C 11.94 g/m*3 16.9 C 4.8 km/h
145 29-06-2020 12:00:00 17.2 C 12.15 g/m*3 17.2 C 8.1 km/h
146 29-06-2020 12:05:00 17.3 C 11.93 g/m*3 17.3 C 4.8 km/h
147 29-06-2020 12:10:00 17.2 C 11.57 g/m*3 17.2 C 8.1 km/h
148 29-06-2020 12:15:00 17.2 C 11.72 g/m*3 17.2 C 8.1 km/h
149 29-06-2020 12:20:00 17.2 C 11.86 g/m*3 17.2 C 8.1 km/h
150 29-06-2020 12:25:00 17.4 C 11.86 g/m*3 17.4 C 8.1 km/h
Sensor: Nr:Datum:Temp:Abs-Feuchte:Windchill:Wind:
Aussen-T/F 151 29-06-2020 12:30:00 17.7 C 11.62 g/m*3 17.7 C 8.1 km/h
152 29-06-2020 12:35:00 17.8 C 11.84 g/m*3 17.8 C 8.1 km/h
153 29-06-2020 12:40:00 17.9 C 11.91 g/m*3 17.9 C 9.7 km/h
154 29-06-2020 12:45:00 18.1 C 11.9 g/m*3 18.1 C 12.9 km/h
155 29-06-2020 12:50:00 18.3 C 11.88 g/m*3 18.3 C 11.3 km/h
156 29-06-2020 12:55:00 18.6 C 12.1 g/m*3 18.6 C 6.4 km/h
157 29-06-2020 13:00:00 18.9 C 12.15 g/m*3 18.9 C 11.3 km/h
158 29-06-2020 13:05:00 19.2 C 11.87 g/m*3 19.2 C 16.1 km/h
159 29-06-2020 13:10:00 19.4 C 12.01 g/m*3 19.4 C 12.9 km/h
160 29-06-2020 13:15:00 19.7 C 12.06 g/m*3 19.7 C 12.9 km/h
161 29-06-2020 13:20:00 19.9 C 11.68 g/m*3 19.9 C 11.3 km/h
162 29-06-2020 13:25:00 20.1 C 11.99 g/m*3 20.1 C 9.7 km/h
163 29-06-2020 13:30:00 20.2 C 11.89 g/m*3 20.2 C 12.9 km/h
164 29-06-2020 13:35:00 20.3 C 12.14 g/m*3 20.3 C 11.3 km/h
165 29-06-2020 13:40:00 20.4 C 12.03 g/m*3 20.4 C 16.1 km/h
166 29-06-2020 13:45:00 20.5 C 12.28 g/m*3 20.5 C 22.5 km/h
167 29-06-2020 13:50:00 20.7 C 12.06 g/m*3 20.7 C 11.3 km/h
168 29-06-2020 13:55:00 20.8 C 12.13 g/m*3 20.8 C 12.9 km/h
169 29-06-2020 14:00:00 20.9 C 12.02 g/m*3 20.9 C 11.3 km/h
170 29-06-2020 14:05:00 21.1 C 12.16 g/m*3 21.1 C 17.7 km/h
171 29-06-2020 14:10:00 21 C 11.54 g/m*3 21 C 16.1 km/h
172 29-06-2020 14:15:00 20.9 C 11.47 g/m*3 20.9 C 14.5 km/h
173 29-06-2020 14:20:00 21.1 C 11.06 g/m*3 21.1 C 12.9 km/h
174 29-06-2020 14:25:00 21.2 C 11.3 g/m*3 21.2 C 17.7 km/h
175 29-06-2020 14:30:00 21.4 C 10.87 g/m*3 21.4 C 17.7 km/h
Sensor: Nr:Datum:Temp:Abs-Feuchte:Windchill:Wind:
Aussen-T/F 176 29-06-2020 14:35:00 21.7 C 11.83 g/m*3 21.7 C 19.3 km/h
177 29-06-2020 14:40:00 21.8 C 11.9 g/m*3 21.8 C 20.9 km/h
178 29-06-2020 14:45:00 21.8 C 11.51 g/m*3 21.8 C 16.1 km/h
179 29-06-2020 14:50:00 22.1 C 11.71 g/m*3 22.1 C 11.3 km/h
180 29-06-2020 14:55:00 22.3 C 11.26 g/m*3 22.3 C 16.1 km/h
181 29-06-2020 15:00:00 22.2 C 10.8 g/m*3 22.2 C 14.5 km/h
182 29-06-2020 15:05:00 22.2 C 10.21 g/m*3 22.2 C 17.7 km/h
183 29-06-2020 15:10:00 22.4 C 10.33 g/m*3 22.4 C 19.3 km/h
184 29-06-2020 15:15:00 22.8 C 9.55 g/m*3 22.8 C 19.3 km/h
185 29-06-2020 15:20:00 22.8 C 9.75 g/m*3 22.8 C 19.3 km/h
186 29-06-2020 15:25:00 22.6 C 9.64 g/m*3 22.6 C 20.9 km/h
187 29-06-2020 15:30:00 22.3 C 9.48 g/m*3 22.3 C 17.7 km/h
188 29-06-2020 15:35:00 22.7 C 9.9 g/m*3 22.7 C 17.7 km/h
189 29-06-2020 15:40:00 23.1 C 9.72 g/m*3 23.1 C 20.9 km/h
190 29-06-2020 15:45:00 23.4 C 9.46 g/m*3 23.4 C 17.7 km/h
191 29-06-2020 15:50:00 23.4 C 9.25 g/m*3 23.4 C 19.3 km/h
192 29-06-2020 15:55:00 23 C 9.25 g/m*3 23 C 16.1 km/h
193 29-06-2020 16:00:00 23.3 C 9.41 g/m*3 23.3 C 22.5 km/h
194 29-06-2020 16:05:00 23.7 C 10.05 g/m*3 23.7 C 16.1 km/h
195 29-06-2020 16:10:00 23.9 C 9.52 g/m*3 23.9 C 12.9 km/h
196 29-06-2020 16:15:00 23.7 C 9.41 g/m*3 23.7 C 11.3 km/h
197 29-06-2020 16:20:00 23.6 C 9.57 g/m*3 23.6 C 16.1 km/h
198 29-06-2020 16:25:00 23.2 C 9.98 g/m*3 23.2 C 19.3 km/h
199 29-06-2020 16:30:00 23.6 C 9.78 g/m*3 23.6 C 20.9 km/h
200 29-06-2020 16:35:00 24.1 C 9.41 g/m*3 24.1 C 19.3 km/h
Sensor: Nr:Datum:Temp:Abs-Feuchte:Windchill:Wind:
Aussen-T/F 201 29-06-2020 16:40:00 24.2 C 9.46 g/m*3 24.2 C 17.7 km/h
202 29-06-2020 16:45:00 24.2 C 9.46 g/m*3 24.2 C 12.9 km/h
203 29-06-2020 16:50:00 24.4 C 9.79 g/m*3 24.4 C 19.3 km/h
204 29-06-2020 16:55:00 24.2 C 9.46 g/m*3 24.2 C 16.1 km/h
205 29-06-2020 17:00:00 23.8 C 10.33 g/m*3 23.8 C 11.3 km/h
206 29-06-2020 17:05:00 24 C 10.23 g/m*3 24 C 12.9 km/h
207 29-06-2020 17:10:00 23.8 C 10.11 g/m*3 23.8 C 11.3 km/h
208 29-06-2020 17:15:00 23.7 C 9.63 g/m*3 23.7 C 12.9 km/h
209 29-06-2020 17:20:00 23.9 C 9.74 g/m*3 23.9 C 17.7 km/h
210 29-06-2020 17:25:00 24.2 C 9.9 g/m*3 24.2 C 19.3 km/h
211 29-06-2020 17:30:00 24.3 C 9.74 g/m*3 24.3 C 19.3 km/h
212 29-06-2020 17:35:00 24.5 C 9.62 g/m*3 24.5 C 17.7 km/h
213 29-06-2020 17:40:00 24.3 C 9.52 g/m*3 24.3 C 17.7 km/h
214 29-06-2020 17:45:00 23.8 C 9.46 g/m*3 23.8 C 14.5 km/h
215 29-06-2020 17:50:00 23.8 C 9.25 g/m*3 23.8 C 12.9 km/h
216 29-06-2020 17:55:00 24.2 C 9.46 g/m*3 24.2 C 11.3 km/h
217 29-06-2020 18:00:00 23.7 C 8.98 g/m*3 23.7 C 8.1 km/h
218 29-06-2020 18:05:00 23.3 C 9.62 g/m*3 23.3 C 8.1 km/h
219 29-06-2020 18:10:00 23.7 C 9.41 g/m*3 23.7 C 17.7 km/h
220 29-06-2020 18:15:00 23.6 C 9.15 g/m*3 23.6 C 16.1 km/h
221 29-06-2020 18:20:00 23.2 C 9.15 g/m*3 23.2 C 14.5 km/h
222 29-06-2020 18:25:00 23.2 C 9.36 g/m*3 23.2 C 14.5 km/h
223 29-06-2020 18:30:00 22.9 C 9.4 g/m*3 22.9 C 11.3 km/h
224 29-06-2020 18:35:00 23.1 C 9.1 g/m*3 23.1 C 12.9 km/h
225 29-06-2020 18:40:00 23.4 C 9.46 g/m*3 23.4 C 16.1 km/h
Sensor: Nr:Datum:Temp:Abs-Feuchte:Windchill:Wind:
Aussen-T/F 226 29-06-2020 18:45:00 23.8 C 8.82 g/m*3 23.8 C 14.5 km/h
227 29-06-2020 18:50:00 23.6 C 9.15 g/m*3 23.6 C 14.5 km/h
228 29-06-2020 18:55:00 22.9 C 9.2 g/m*3 22.9 C 14.5 km/h
229 29-06-2020 19:00:00 22.7 C 9.29 g/m*3 22.7 C 12.9 km/h
230 29-06-2020 19:05:00 23 C 9.45 g/m*3 23 C 16.1 km/h
231 29-06-2020 19:10:00 22.8 C 9.35 g/m*3 22.8 C 6.4 km/h
232 29-06-2020 19:15:00 22.7 C 9.09 g/m*3 22.7 C 9.7 km/h
233 29-06-2020 19:20:00 22.6 C 9.44 g/m*3 22.6 C 11.3 km/h
234 29-06-2020 19:25:00 22.4 C 8.74 g/m*3 22.4 C 17.7 km/h
235 29-06-2020 19:30:00 22.1 C 8.78 g/m*3 22.1 C 11.3 km/h
236 29-06-2020 19:35:00 21.7 C 8.58 g/m*3 21.7 C 17.7 km/h
237 29-06-2020 19:40:00 21.4 C 8.62 g/m*3 21.4 C 8.1 km/h
238 29-06-2020 19:45:00 21.3 C 9.13 g/m*3 21.3 C 14.5 km/h
239 29-06-2020 19:50:00 21.5 C 8.86 g/m*3 21.5 C 16.1 km/h
240 29-06-2020 19:55:00 21.6 C 8.53 g/m*3 21.6 C 16.1 km/h
241 29-06-2020 20:00:00 21.3 C 8.39 g/m*3 21.3 C 9.7 km/h
242 29-06-2020 20:05:00 20.9 C 8.74 g/m*3 20.9 C 8.1 km/h
243 29-06-2020 20:10:00 20.7 C 8.82 g/m*3 20.7 C 9.7 km/h
244 29-06-2020 20:15:00 20.4 C 9.02 g/m*3 20.4 C 6.4 km/h
245 29-06-2020 20:20:00 20.3 C 8.79 g/m*3 20.3 C 4.8 km/h
246 29-06-2020 20:25:00 20.4 C 8.67 g/m*3 20.4 C 9.7 km/h
247 29-06-2020 20:30:00 20.7 C 8.64 g/m*3 20.7 C 12.9 km/h
248 29-06-2020 20:35:00 20.8 C 8.51 g/m*3 20.8 C 11.3 km/h
249 29-06-2020 20:40:00 20.9 C 8.74 g/m*3 20.9 C 9.7 km/h
250 29-06-2020 20:45:00 21 C 8.61 g/m*3 21 C 14.5 km/h
Sensor: Nr:Datum:Temp:Abs-Feuchte:Windchill:Wind:
Aussen-T/F 251 29-06-2020 20:50:00 20.9 C 9.29 g/m*3 20.9 C 8.1 km/h
252 29-06-2020 20:55:00 20.8 C 9.23 g/m*3 20.8 C 6.4 km/h
253 29-06-2020 21:00:00 20.4 C 8.85 g/m*3 20.4 C 11.3 km/h
254 29-06-2020 21:05:00 20.3 C 8.97 g/m*3 20.3 C 8.1 km/h
255 29-06-2020 21:10:00 20.2 C 9.27 g/m*3 20.2 C 4.8 km/h
256 29-06-2020 21:15:00 19.9 C 9.11 g/m*3 19.9 C 6.4 km/h
257 29-06-2020 21:20:00 19.7 C 8.83 g/m*3 19.7 C 4.8 km/h
258 29-06-2020 21:25:00 19.6 C 9.12 g/m*3 19.6 C 3.2 km/h
259 29-06-2020 21:30:00 19.3 C 9.12 g/m*3 19.3 C 3.2 km/h
260 29-06-2020 21:35:00 19.1 C 9.18 g/m*3 19.1 C 8.1 km/h
261 29-06-2020 21:40:00 18.9 C 8.75 g/m*3 18.9 C 6.4 km/h
262 29-06-2020 21:45:00 18.8 C 9.34 g/m*3 18.8 C 4.8 km/h
263 29-06-2020 21:50:00 18.6 C 9.23 g/m*3 18.6 C 3.2 km/h
264 29-06-2020 21:55:00 18.4 C 9.12 g/m*3 18.4 C 4.8 km/h
265 29-06-2020 22:00:00 18.3 C 9.38 g/m*3 18.3 C 4.8 km/h
266 29-06-2020 22:05:00 18.1 C 8.96 g/m*3 18.1 C 4.8 km/h
267 29-06-2020 22:10:00 17.9 C 9.62 g/m*3 17.9 C 4.8 km/h
268 29-06-2020 22:15:00 17.7 C 9.51 g/m*3 17.7 C 3.2 km/h
269 29-06-2020 22:20:00 17.5 C 9.24 g/m*3 17.5 C 3.2 km/h
270 29-06-2020 22:25:00 17.3 C 9.28 g/m*3 17.3 C 1.6 km/h
271 29-06-2020 22:30:00 17.2 C 9.23 g/m*3 17.2 C 3.2 km/h
272 29-06-2020 22:35:00 16.9 C 9.06 g/m*3 16.9 C 4.8 km/h
273 29-06-2020 22:40:00 16.8 C 8.86 g/m*3 16.8 C 6.4 km/h
274 29-06-2020 22:45:00 16.7 C 8.95 g/m*3 16.7 C 3.2 km/h
275 29-06-2020 22:50:00 16.6 C 8.76 g/m*3 16.6 C 8.1 km/h
Sensor: Nr:Datum:Temp:Abs-Feuchte:Windchill:Wind:
Aussen-T/F 276 29-06-2020 22:55:00 16.4 C 8.79 g/m*3 16.4 C 4.8 km/h
277 29-06-2020 23:00:00 16.3 C 8.74 g/m*3 16.3 C 4.8 km/h
278 29-06-2020 23:05:00 16.3 C 9.02 g/m*3 16.3 C 3.2 km/h
279 29-06-2020 23:10:00 16.1 C 8.91 g/m*3 16.1 C 4.8 km/h
280 29-06-2020 23:15:00 16 C 8.86 g/m*3 16 C 6.4 km/h
281 29-06-2020 23:20:00 15.8 C 8.88 g/m*3 15.8 C 4.8 km/h
282 29-06-2020 23:25:00 15.7 C 9.1 g/m*3 15.7 C 4.8 km/h
283 29-06-2020 23:30:00 15.6 C 9.04 g/m*3 15.6 C 6.4 km/h
284 29-06-2020 23:35:00 15.4 C 9.07 g/m*3 15.4 C 4.8 km/h
285 29-06-2020 23:40:00 15.2 C 9.09 g/m*3 15.2 C 4.8 km/h
286 29-06-2020 23:45:00 15.1 C 9.16 g/m*3 15.1 C 4.8 km/h
287 29-06-2020 23:50:00 14.9 C 9.05 g/m*3 14.9 C 4.8 km/h
288 29-06-2020 23:55:00 14.7 C 9.07 g/m*3 14.7 C 4.8 km/h
289 30-06-2020 00:00:00 14.4 C 9.02 g/m*3 14.4 C 4.8 km/h
290 30-06-2020 00:05:00 14.3 C 8.97 g/m*3 14.3 C 4.8 km/h
291 30-06-2020 00:10:00 14.1 C 8.98 g/m*3 14.1 C 4.8 km/h
292 30-06-2020 00:15:00 13.9 C 8.99 g/m*3 13.9 C 4.8 km/h
293 30-06-2020 00:20:00 13.8 C 8.94 g/m*3 13.8 C 3.2 km/h
294 30-06-2020 00:25:00 13.7 C 9 g/m*3 13.7 C 3.2 km/h
295 30-06-2020 00:30:00 13.6 C 9.06 g/m*3 13.6 C 0 km/h
296 30-06-2020 00:35:00 13.4 C 8.95 g/m*3 13.4 C 0 km/h
297 30-06-2020 00:40:00 13.4 C 9.07 g/m*3 13.4 C 0 km/h
298 30-06-2020 00:45:00 13.4 C 9.18 g/m*3 13.4 C 0 km/h
299 30-06-2020 00:50:00 13.4 C 9.18 g/m*3 13.4 C 0 km/h
300 30-06-2020 00:55:00 13.4 C 9.18 g/m*3 13.4 C 0 km/h
Sensor: Nr:Datum:Temp:Abs-Feuchte:Windchill:Wind:
Aussen-T/F 301 30-06-2020 01:00:00 13.4 C 9.18 g/m*3 13.4 C 0 km/h
302 30-06-2020 01:05:00 13.4 C 9.18 g/m*3 13.4 C 0 km/h
303 30-06-2020 01:10:00 13.4 C 9.18 g/m*3 13.4 C 0 km/h
304 30-06-2020 01:15:00 13.3 C 9.13 g/m*3 13.3 C 0 km/h
305 30-06-2020 01:20:00 13.2 C 8.96 g/m*3 13.2 C 0 km/h
306 30-06-2020 01:25:00 13.2 C 9.07 g/m*3 13.2 C 0 km/h
307 30-06-2020 01:30:00 13.1 C 8.9 g/m*3 13.1 C 0 km/h
308 30-06-2020 01:35:00 12.9 C 8.9 g/m*3 12.9 C 0 km/h
309 30-06-2020 01:40:00 12.8 C 8.74 g/m*3 12.8 C 0 km/h
310 30-06-2020 01:45:00 12.7 C 8.79 g/m*3 12.7 C 0 km/h
311 30-06-2020 01:50:00 12.6 C 8.85 g/m*3 12.6 C 0 km/h
312 30-06-2020 01:55:00 12.5 C 8.8 g/m*3 12.5 C 0 km/h
313 30-06-2020 02:00:00 12.4 C 8.74 g/m*3 12.4 C 0 km/h
314 30-06-2020 02:05:00 12.3 C 8.69 g/m*3 12.3 C 0 km/h
315 30-06-2020 02:10:00 12.2 C 8.74 g/m*3 12.2 C 0 km/h
316 30-06-2020 02:15:00 12.2 C 8.85 g/m*3 12.2 C 0 km/h
317 30-06-2020 02:20:00 12.1 C 8.79 g/m*3 12.1 C 0 km/h
318 30-06-2020 02:25:00 12.1 C 8.9 g/m*3 12.1 C 0 km/h
319 30-06-2020 02:30:00 12 C 8.85 g/m*3 12 C 0 km/h
320 30-06-2020 02:35:00 11.9 C 8.9 g/m*3 11.9 C 0 km/h
321 30-06-2020 02:40:00 11.8 C 8.84 g/m*3 11.8 C 0 km/h
322 30-06-2020 02:45:00 11.7 C 8.79 g/m*3 11.7 C 0 km/h
323 30-06-2020 02:50:00 11.6 C 8.73 g/m*3 11.6 C 0 km/h
324 30-06-2020 02:55:00 11.4 C 8.72 g/m*3 11.4 C 0 km/h
325 30-06-2020 03:00:00 11.3 C 8.67 g/m*3 11.3 C 0 km/h
Sensor: Nr:Datum:Temp:Abs-Feuchte:Windchill:Wind:
Aussen-T/F 326 30-06-2020 03:05:00 11.3 C 8.67 g/m*3 11.3 C 0 km/h
327 30-06-2020 03:10:00 11.2 C 8.72 g/m*3 11.2 C 0 km/h
328 30-06-2020 03:15:00 11.2 C 8.72 g/m*3 11.2 C 0 km/h
329 30-06-2020 03:20:00 11.1 C 8.66 g/m*3 11.1 C 0 km/h
330 30-06-2020 03:25:00 11.1 C 8.76 g/m*3 11.1 C 0 km/h
331 30-06-2020 03:30:00 11 C 8.71 g/m*3 11 C 0 km/h
332 30-06-2020 03:35:00 11 C 8.71 g/m*3 11 C 0 km/h
333 30-06-2020 03:40:00 11 C 8.81 g/m*3 11 C 0 km/h
334 30-06-2020 03:45:00 10.9 C 8.75 g/m*3 10.9 C 0 km/h
335 30-06-2020 03:50:00 10.9 C 8.75 g/m*3 10.9 C 0 km/h
336 30-06-2020 03:55:00 10.9 C 8.75 g/m*3 10.9 C 0 km/h
337 30-06-2020 04:00:00 10.8 C 8.7 g/m*3 10.8 C 0 km/h
338 30-06-2020 04:05:00 10.8 C 8.7 g/m*3 10.8 C 0 km/h
339 30-06-2020 04:10:00 10.8 C 8.7 g/m*3 10.8 C 0 km/h
340 30-06-2020 04:15:00 10.8 C 8.7 g/m*3 10.8 C 0 km/h
341 30-06-2020 04:20:00 10.7 C 8.64 g/m*3 10.7 C 0 km/h
342 30-06-2020 04:25:00 10.7 C 8.74 g/m*3 10.7 C 0 km/h
343 30-06-2020 04:30:00 10.6 C 8.69 g/m*3 10.6 C 0 km/h
344 30-06-2020 04:35:00 10.6 C 8.69 g/m*3 10.6 C 0 km/h
345 30-06-2020 04:40:00 10.5 C 8.63 g/m*3 10.5 C 0 km/h
346 30-06-2020 04:45:00 10.4 C 8.58 g/m*3 10.4 C 0 km/h
347 30-06-2020 04:50:00 10.4 C 8.58 g/m*3 10.4 C 0 km/h
348 30-06-2020 04:55:00 10.3 C 8.52 g/m*3 10.3 C 0 km/h
349 30-06-2020 05:00:00 10.3 C 8.52 g/m*3 10.3 C 0 km/h
350 30-06-2020 05:05:00 10.3 C 8.62 g/m*3 10.3 C 0 km/h
Sensor: Nr:Datum:Temp:Abs-Feuchte:Windchill:Wind:
Aussen-T/F 351 30-06-2020 05:10:00 10.2 C 8.56 g/m*3 10.2 C 0 km/h
352 30-06-2020 05:15:00 10.1 C 8.51 g/m*3 10.1 C 0 km/h
353 30-06-2020 05:20:00 10.1 C 8.51 g/m*3 10.1 C 0 km/h
354 30-06-2020 05:25:00 10 C 8.46 g/m*3 10 C 0 km/h
355 30-06-2020 05:30:00 9.9 C 8.4 g/m*3 9.9 C 0 km/h
356 30-06-2020 05:35:00 9.9 C 8.5 g/m*3 9.9 C 0 km/h
357 30-06-2020 05:40:00 9.8 C 8.35 g/m*3 9.8 C 0 km/h
358 30-06-2020 05:45:00 9.8 C 8.44 g/m*3 9.8 C 0 km/h
359 30-06-2020 05:50:00 9.8 C 8.44 g/m*3 9.8 C 0 km/h
360 30-06-2020 05:55:00 9.7 C 8.39 g/m*3 9.7 C 0 km/h
361 30-06-2020 06:00:00 9.7 C 8.39 g/m*3 9.7 C 0 km/h
362 30-06-2020 06:05:00 9.7 C 8.39 g/m*3 9.7 C 0 km/h
363 30-06-2020 06:10:00 9.7 C 8.39 g/m*3 9.7 C 0 km/h
364 30-06-2020 06:15:00 9.7 C 8.48 g/m*3 9.7 C 0 km/h
365 30-06-2020 06:20:00 9.7 C 8.48 g/m*3 9.7 C 0 km/h
366 30-06-2020 06:25:00 9.8 C 8.54 g/m*3 9.8 C 0 km/h
367 30-06-2020 06:30:00 9.8 C 8.54 g/m*3 9.8 C 0 km/h
368 30-06-2020 06:35:00 9.8 C 8.54 g/m*3 9.8 C 0 km/h
369 30-06-2020 06:40:00 9.9 C 8.68 g/m*3 9.9 C 0 km/h
370 30-06-2020 06:45:00 10 C 8.74 g/m*3 10 C 0 km/h
371 30-06-2020 06:50:00 10.1 C 8.79 g/m*3 10.1 C 0 km/h
372 30-06-2020 06:55:00 10.1 C 8.79 g/m*3 10.1 C 0 km/h
373 30-06-2020 07:00:00 10.2 C 8.85 g/m*3 10.2 C 0 km/h
374 30-06-2020 07:05:00 10.3 C 8.91 g/m*3 10.3 C 0 km/h
375 30-06-2020 07:10:00 10.4 C 8.96 g/m*3 10.4 C 0 km/h
Sensor: Nr:Datum:Temp:Abs-Feuchte:Windchill:Wind:
Aussen-T/F 376 30-06-2020 07:15:00 10.6 C 9.08 g/m*3 10.6 C 1.6 km/h
377 30-06-2020 07:20:00 10.7 C 9.04 g/m*3 10.7 C 0 km/h
378 30-06-2020 07:25:00 10.9 C 9.15 g/m*3 10.9 C 0 km/h
379 30-06-2020 07:30:00 11.1 C 9.27 g/m*3 11.1 C 0 km/h
380 30-06-2020 07:35:00 11.3 C 9.28 g/m*3 11.3 C 0 km/h
381 30-06-2020 07:40:00 11.6 C 9.46 g/m*3 11.6 C 0 km/h
382 30-06-2020 07:45:00 11.8 C 9.47 g/m*3 11.8 C 0 km/h
383 30-06-2020 07:50:00 11.9 C 9.53 g/m*3 11.9 C 0 km/h
384 30-06-2020 07:55:00 12.2 C 9.6 g/m*3 12.2 C 0 km/h
385 30-06-2020 08:00:00 12.4 C 9.72 g/m*3 12.4 C 0 km/h
386 30-06-2020 08:05:00 12.7 C 9.91 g/m*3 12.7 C 0 km/h
387 30-06-2020 08:10:00 12.9 C 9.92 g/m*3 12.9 C 0 km/h
388 30-06-2020 08:15:00 13.1 C 9.93 g/m*3 13.1 C 0 km/h
389 30-06-2020 08:20:00 13.4 C 10.11 g/m*3 13.4 C 0 km/h
390 30-06-2020 08:25:00 13.6 C 10 g/m*3 13.6 C 1.6 km/h
391 30-06-2020 08:30:00 13.8 C 10.01 g/m*3 13.8 C 0 km/h
392 30-06-2020 08:35:00 14.1 C 10.07 g/m*3 14.1 C 0 km/h
393 30-06-2020 08:40:00 14.3 C 10.07 g/m*3 14.3 C 0 km/h
394 30-06-2020 08:45:00 14.4 C 9.89 g/m*3 14.4 C 0 km/h
395 30-06-2020 08:50:00 14.6 C 9.89 g/m*3 14.6 C 0 km/h
396 30-06-2020 08:55:00 14.8 C 10.01 g/m*3 14.8 C 0 km/h
397 30-06-2020 09:00:00 14.9 C 9.94 g/m*3 14.9 C 0 km/h
398 30-06-2020 09:05:00 15.1 C 10.19 g/m*3 15.1 C 0 km/h
399 30-06-2020 09:10:00 15.3 C 10.06 g/m*3 15.3 C 0 km/h
400 30-06-2020 09:15:00 15.5 C 10.05 g/m*3 15.5 C 0 km/h
Sensor: Nr:Datum:Temp:Abs-Feuchte:Windchill:Wind:
Aussen-T/F 401 30-06-2020 09:20:00 15.7 C 9.9 g/m*3 15.7 C 0 km/h
402 30-06-2020 09:25:00 15.9 C 10.02 g/m*3 15.9 C 0 km/h
403 30-06-2020 09:30:00 16.1 C 10.01 g/m*3 16.1 C 0 km/h
404 30-06-2020 09:35:00 16.3 C 10.27 g/m*3 16.3 C 0 km/h
405 30-06-2020 09:40:00 16.5 C 10.25 g/m*3 16.5 C 0 km/h
406 30-06-2020 09:45:00 16.7 C 10.23 g/m*3 16.7 C 0 km/h
407 30-06-2020 09:50:00 16.8 C 10.01 g/m*3 16.8 C 0 km/h
408 30-06-2020 09:55:00 17 C 9.98 g/m*3 17 C 0 km/h
409 30-06-2020 10:00:00 17.1 C 9.75 g/m*3 17.1 C 9.7 km/h
410 30-06-2020 10:05:00 17.2 C 9.81 g/m*3 17.2 C 9.7 km/h
411 30-06-2020 10:10:00 17.2 C 9.96 g/m*3 17.2 C 6.4 km/h
412 30-06-2020 10:15:00 17.3 C 10.16 g/m*3 17.3 C 4.8 km/h
413 30-06-2020 10:20:00 17.3 C 9.87 g/m*3 17.3 C 8.1 km/h
414 30-06-2020 10:25:00 17.3 C 9.87 g/m*3 17.3 C 8.1 km/h
415 30-06-2020 10:30:00 17.3 C 10.02 g/m*3 17.3 C 6.4 km/h
416 30-06-2020 10:35:00 17.4 C 10.08 g/m*3 17.4 C 4.8 km/h
417 30-06-2020 10:40:00 17.5 C 9.99 g/m*3 17.5 C 6.4 km/h
418 30-06-2020 10:45:00 17.4 C 10.08 g/m*3 17.4 C 11.3 km/h
419 30-06-2020 10:50:00 17.4 C 9.93 g/m*3 17.4 C 9.7 km/h
420 30-06-2020 10:55:00 17.5 C 9.84 g/m*3 17.5 C 4.8 km/h
421 30-06-2020 11:00:00 17.5 C 9.84 g/m*3 17.5 C 9.7 km/h
422 30-06-2020 11:05:00 17.5 C 9.69 g/m*3 17.5 C 4.8 km/h
423 30-06-2020 11:10:00 17.5 C 9.99 g/m*3 17.5 C 6.4 km/h
424 30-06-2020 11:15:00 17.6 C 9.9 g/m*3 17.6 C 6.4 km/h
425 30-06-2020 11:20:00 17.7 C 9.96 g/m*3 17.7 C 14.5 km/h
Sensor: Nr:Datum:Temp:Abs-Feuchte:Windchill:Wind:
Aussen-T/F 426 30-06-2020 11:25:00 17.8 C 10.02 g/m*3 17.8 C 8.1 km/h
427 30-06-2020 11:30:00 17.9 C 9.92 g/m*3 17.9 C 9.7 km/h
428 30-06-2020 11:35:00 17.9 C 10.08 g/m*3 17.9 C 4.8 km/h
429 30-06-2020 11:40:00 18 C 10.14 g/m*3 18 C 4.8 km/h
430 30-06-2020 11:45:00 18 C 9.98 g/m*3 18 C 11.3 km/h
431 30-06-2020 11:50:00 18.1 C 10.2 g/m*3 18.1 C 4.8 km/h
432 30-06-2020 11:55:00 18.1 C 10.04 g/m*3 18.1 C 8.1 km/h
433 30-06-2020 12:00:00 18.1 C 10.2 g/m*3 18.1 C 9.7 km/h
434 30-06-2020 12:05:00 18.1 C 10.2 g/m*3 18.1 C 8.1 km/h
435 30-06-2020 12:10:00 18.1 C 10.2 g/m*3 18.1 C 9.7 km/h
436 30-06-2020 12:15:00 18.1 C 10.2 g/m*3 18.1 C 6.4 km/h
437 30-06-2020 12:20:00 18.1 C 10.2 g/m*3 18.1 C 12.9 km/h
438 30-06-2020 12:25:00 18.1 C 10.04 g/m*3 18.1 C 12.9 km/h
439 30-06-2020 12:30:00 18.1 C 10.04 g/m*3 18.1 C 11.3 km/h
440 30-06-2020 12:35:00 18.1 C 10.2 g/m*3 18.1 C 4.8 km/h
441 30-06-2020 12:40:00 18.2 C 10.41 g/m*3 18.2 C 6.4 km/h
442 30-06-2020 12:45:00 18.4 C 10.22 g/m*3 18.4 C 9.7 km/h
443 30-06-2020 12:50:00 18.7 C 10.25 g/m*3 18.7 C 16.1 km/h
444 30-06-2020 12:55:00 18.8 C 10.31 g/m*3 18.8 C 12.9 km/h
445 30-06-2020 13:00:00 18.9 C 10.21 g/m*3 18.9 C 14.5 km/h
446 30-06-2020 13:05:00 19.1 C 10.33 g/m*3 19.1 C 8.1 km/h
447 30-06-2020 13:10:00 19.3 C 10.45 g/m*3 19.3 C 11.3 km/h
448 30-06-2020 13:15:00 19.4 C 10.51 g/m*3 19.4 C 9.7 km/h
449 30-06-2020 13:20:00 19.5 C 10.41 g/m*3 19.5 C 11.3 km/h
450 30-06-2020 13:25:00 19.6 C 10.47 g/m*3 19.6 C 11.3 km/h
Sensor: Nr:Datum:Temp:Abs-Feuchte:Windchill:Wind:
Aussen-T/F 451 30-06-2020 13:30:00 19.8 C 10.59 g/m*3 19.8 C 16.1 km/h
452 30-06-2020 13:35:00 19.9 C 10.48 g/m*3 19.9 C 12.9 km/h
453 30-06-2020 13:40:00 20.1 C 10.6 g/m*3 20.1 C 9.7 km/h
454 30-06-2020 13:45:00 20.2 C 10.32 g/m*3 20.2 C 17.7 km/h
455 30-06-2020 13:50:00 20.2 C 10.49 g/m*3 20.2 C 11.3 km/h
456 30-06-2020 13:55:00 20.3 C 10.55 g/m*3 20.3 C 14.5 km/h
457 30-06-2020 14:00:00 20.4 C 10.26 g/m*3 20.4 C 20.9 km/h
458 30-06-2020 14:05:00 20.5 C 10.5 g/m*3 20.5 C 12.9 km/h
459 30-06-2020 14:10:00 20.5 C 10.5 g/m*3 20.5 C 14.5 km/h
460 30-06-2020 14:15:00 20.5 C 10.32 g/m*3 20.5 C 19.3 km/h
461 30-06-2020 14:20:00 20.8 C 10.5 g/m*3 20.8 C 14.5 km/h
462 30-06-2020 14:25:00 21.1 C 10.32 g/m*3 21.1 C 16.1 km/h
463 30-06-2020 14:30:00 21.2 C 10.75 g/m*3 21.2 C 14.5 km/h
464 30-06-2020 14:35:00 21.2 C 10.56 g/m*3 21.2 C 12.9 km/h
465 30-06-2020 14:40:00 21.1 C 10.5 g/m*3 21.1 C 11.3 km/h
466 30-06-2020 14:45:00 21 C 10.08 g/m*3 21 C 20.9 km/h
467 30-06-2020 14:50:00 21.2 C 10.56 g/m*3 21.2 C 17.7 km/h
468 30-06-2020 14:55:00 21.3 C 10.25 g/m*3 21.3 C 20.9 km/h
469 30-06-2020 15:00:00 21.2 C 10.19 g/m*3 21.2 C 19.3 km/h
470 30-06-2020 15:05:00 21.3 C 10.81 g/m*3 21.3 C 19.3 km/h
471 30-06-2020 15:10:00 21.4 C 10.5 g/m*3 21.4 C 24.1 km/h
472 30-06-2020 15:15:00 21.3 C 10.44 g/m*3 21.3 C 17.7 km/h
473 30-06-2020 15:20:00 21.4 C 10.5 g/m*3 21.4 C 12.9 km/h
474 30-06-2020 15:25:00 21.8 C 10.74 g/m*3 21.8 C 17.7 km/h
475 30-06-2020 15:30:00 22 C 10.48 g/m*3 22 C 14.5 km/h
Sensor: Nr:Datum:Temp:Abs-Feuchte:Windchill:Wind:
Aussen-T/F 476 30-06-2020 15:35:00 21.8 C 10.55 g/m*3 21.8 C 11.3 km/h
477 30-06-2020 15:40:00 21.7 C 10.68 g/m*3 21.7 C 12.9 km/h
478 30-06-2020 15:45:00 21.7 C 10.49 g/m*3 21.7 C 17.7 km/h
479 30-06-2020 15:50:00 21.4 C 10.5 g/m*3 21.4 C 17.7 km/h
480 30-06-2020 15:55:00 21.3 C 10.62 g/m*3 21.3 C 9.7 km/h
481 30-06-2020 16:00:00 21.6 C 10.81 g/m*3 21.6 C 11.3 km/h
482 30-06-2020 16:05:00 21.8 C 10.94 g/m*3 21.8 C 11.3 km/h
483 30-06-2020 16:10:00 21.7 C 10.87 g/m*3 21.7 C 12.9 km/h
484 30-06-2020 16:15:00 21.9 C 11.19 g/m*3 21.9 C 14.5 km/h
485 30-06-2020 16:20:00 22.2 C 10.8 g/m*3 22.2 C 24.1 km/h
486 30-06-2020 16:25:00 22.4 C 11.12 g/m*3 22.4 C 14.5 km/h
487 30-06-2020 16:30:00 22.8 C 10.77 g/m*3 22.8 C 19.3 km/h
488 30-06-2020 16:35:00 22.6 C 10.65 g/m*3 22.6 C 17.7 km/h
489 30-06-2020 16:40:00 22.4 C 10.92 g/m*3 22.4 C 14.5 km/h
490 30-06-2020 16:45:00 22.2 C 10.6 g/m*3 22.2 C 17.7 km/h
491 30-06-2020 16:50:00 22.1 C 10.93 g/m*3 22.1 C 16.1 km/h
492 30-06-2020 16:55:00 22.2 C 10.99 g/m*3 22.2 C 9.7 km/h
493 30-06-2020 17:00:00 22.5 C 10.79 g/m*3 22.5 C 19.3 km/h
494 30-06-2020 17:05:00 22.5 C 11.19 g/m*3 22.5 C 14.5 km/h
495 30-06-2020 17:10:00 22.8 C 10.57 g/m*3 22.8 C 16.1 km/h
496 30-06-2020 17:15:00 23 C 10.69 g/m*3 23 C 14.5 km/h
497 30-06-2020 17:20:00 23.4 C 10.72 g/m*3 23.4 C 17.7 km/h
498 30-06-2020 17:25:00 23.3 C 10.87 g/m*3 23.3 C 16.1 km/h
499 30-06-2020 17:30:00 23.4 C 10.72 g/m*3 23.4 C 17.7 km/h
500 30-06-2020 17:35:00 23.3 C 10.87 g/m*3 23.3 C 11.3 km/h
Sensor: Nr:Datum:Temp:Abs-Feuchte:Windchill:Wind:
Aussen-T/F 501 30-06-2020 17:40:00 23.6 C 11.06 g/m*3 23.6 C 16.1 km/h
502 30-06-2020 17:45:00 23.9 C 10.82 g/m*3 23.9 C 17.7 km/h
503 30-06-2020 17:50:00 23.7 C 10.69 g/m*3 23.7 C 12.9 km/h
504 30-06-2020 17:55:00 23.1 C 10.75 g/m*3 23.1 C 6.4 km/h
505 30-06-2020 18:00:00 22.7 C 10.71 g/m*3 22.7 C 11.3 km/h
506 30-06-2020 18:05:00 22.9 C 10.83 g/m*3 22.9 C 8.1 km/h
507 30-06-2020 18:10:00 23.4 C 10.93 g/m*3 23.4 C 22.5 km/h
508 30-06-2020 18:15:00 23.6 C 10.85 g/m*3 23.6 C 17.7 km/h
509 30-06-2020 18:20:00 23.5 C 10.79 g/m*3 23.5 C 17.7 km/h
510 30-06-2020 18:25:00 23 C 10.69 g/m*3 23 C 12.9 km/h
511 30-06-2020 18:30:00 22.7 C 10.71 g/m*3 22.7 C 16.1 km/h
512 30-06-2020 18:35:00 22.8 C 10.57 g/m*3 22.8 C 16.1 km/h
513 30-06-2020 18:40:00 22.5 C 10.59 g/m*3 22.5 C 12.9 km/h
514 30-06-2020 18:45:00 22.1 C 10.74 g/m*3 22.1 C 19.3 km/h
515 30-06-2020 18:50:00 21.9 C 10.81 g/m*3 21.9 C 8.1 km/h
516 30-06-2020 18:55:00 21.7 C 11.06 g/m*3 21.7 C 20.9 km/h
517 30-06-2020 19:00:00 21.7 C 10.87 g/m*3 21.7 C 9.7 km/h
518 30-06-2020 19:05:00 21.8 C 10.94 g/m*3 21.8 C 16.1 km/h
519 30-06-2020 19:10:00 21.6 C 10.81 g/m*3 21.6 C 14.5 km/h
520 30-06-2020 19:15:00 21.4 C 11.06 g/m*3 21.4 C 8.1 km/h
521 30-06-2020 19:20:00 21.3 C 11 g/m*3 21.3 C 9.7 km/h
522 30-06-2020 19:25:00 21.3 C 11 g/m*3 21.3 C 9.7 km/h
523 30-06-2020 19:30:00 21.2 C 10.93 g/m*3 21.2 C 12.9 km/h
524 30-06-2020 19:35:00 21.2 C 11.12 g/m*3 21.2 C 16.1 km/h
525 30-06-2020 19:40:00 21.1 C 11.06 g/m*3 21.1 C 16.1 km/h
Sensor: Nr:Datum:Temp:Abs-Feuchte:Windchill:Wind:
Aussen-T/F 526 30-06-2020 19:45:00 21.1 C 11.06 g/m*3 21.1 C 9.7 km/h
527 30-06-2020 19:50:00 21.1 C 11.06 g/m*3 21.1 C 14.5 km/h
528 30-06-2020 19:55:00 21.1 C 11.24 g/m*3 21.1 C 12.9 km/h
529 30-06-2020 20:00:00 21.3 C 11.37 g/m*3 21.3 C 19.3 km/h
530 30-06-2020 20:05:00 21.4 C 11.44 g/m*3 21.4 C 6.4 km/h
531 30-06-2020 20:10:00 21.4 C 11.62 g/m*3 21.4 C 11.3 km/h
532 30-06-2020 20:15:00 21.2 C 11.3 g/m*3 21.2 C 11.3 km/h
533 30-06-2020 20:20:00 21 C 11.36 g/m*3 21 C 8.1 km/h
534 30-06-2020 20:25:00 20.9 C 11.29 g/m*3 20.9 C 8.1 km/h
535 30-06-2020 20:30:00 20.8 C 11.23 g/m*3 20.8 C 14.5 km/h
536 30-06-2020 20:35:00 20.8 C 11.23 g/m*3 20.8 C 12.9 km/h
537 30-06-2020 20:40:00 20.7 C 11.34 g/m*3 20.7 C 16.1 km/h
538 30-06-2020 20:45:00 20.7 C 11.34 g/m*3 20.7 C 9.7 km/h
539 30-06-2020 20:50:00 20.6 C 11.28 g/m*3 20.6 C 12.9 km/h
540 30-06-2020 20:55:00 20.5 C 11.21 g/m*3 20.5 C 9.7 km/h
541 30-06-2020 21:00:00 20.4 C 11.32 g/m*3 20.4 C 14.5 km/h
542 30-06-2020 21:05:00 20.4 C 11.5 g/m*3 20.4 C 9.7 km/h
543 30-06-2020 21:10:00 20.4 C 11.68 g/m*3 20.4 C 3.2 km/h
544 30-06-2020 21:15:00 20.3 C 11.61 g/m*3 20.3 C 8.1 km/h
545 30-06-2020 21:20:00 20.1 C 11.3 g/m*3 20.1 C 16.1 km/h
546 30-06-2020 21:25:00 20.1 C 11.65 g/m*3 20.1 C 8.1 km/h
547 30-06-2020 21:30:00 20 C 11.41 g/m*3 20 C 6.4 km/h
548 30-06-2020 21:35:00 19.9 C 11.68 g/m*3 19.9 C 3.2 km/h
549 30-06-2020 21:40:00 19.9 C 11.68 g/m*3 19.9 C 3.2 km/h
550 30-06-2020 21:45:00 19.8 C 11.61 g/m*3 19.8 C 1.6 km/h
Sensor: Nr:Datum:Temp:Abs-Feuchte:Windchill:Wind:
Aussen-T/F 551 30-06-2020 21:50:00 19.7 C 11.55 g/m*3 19.7 C 0 km/h
552 30-06-2020 21:55:00 19.7 C 11.72 g/m*3 19.7 C 0 km/h
553 30-06-2020 22:00:00 19.6 C 11.82 g/m*3 19.6 C 8.1 km/h
554 30-06-2020 22:05:00 19.4 C 11.68 g/m*3 19.4 C 6.4 km/h
555 30-06-2020 22:10:00 19.3 C 11.78 g/m*3 19.3 C 3.2 km/h
556 30-06-2020 22:15:00 19.2 C 11.71 g/m*3 19.2 C 0 km/h
557 30-06-2020 22:20:00 19.1 C 11.64 g/m*3 19.1 C 6.4 km/h
558 30-06-2020 22:25:00 19 C 11.73 g/m*3 19 C 4.8 km/h
559 30-06-2020 22:30:00 18.9 C 11.83 g/m*3 18.9 C 3.2 km/h
560 30-06-2020 22:35:00 18.8 C 11.76 g/m*3 18.8 C 4.8 km/h
561 30-06-2020 22:40:00 18.8 C 11.76 g/m*3 18.8 C 3.2 km/h
562 30-06-2020 22:45:00 18.8 C 11.6 g/m*3 18.8 C 3.2 km/h
563 30-06-2020 22:50:00 18.8 C 11.76 g/m*3 18.8 C 8.1 km/h
564 30-06-2020 22:55:00 18.8 C 11.6 g/m*3 18.8 C 8.1 km/h
565 30-06-2020 23:00:00 18.9 C 11.66 g/m*3 18.9 C 8.1 km/h
566 30-06-2020 23:05:00 19 C 11.73 g/m*3 19 C 1.6 km/h
567 30-06-2020 23:10:00 19.1 C 11.64 g/m*3 19.1 C 8.1 km/h
568 30-06-2020 23:15:00 19.2 C 11.71 g/m*3 19.2 C 3.2 km/h
569 30-06-2020 23:20:00 19.2 C 11.87 g/m*3 19.2 C 4.8 km/h
570 30-06-2020 23:25:00 19.2 C 11.71 g/m*3 19.2 C 11.3 km/h
571 30-06-2020 23:30:00 19.3 C 11.78 g/m*3 19.3 C 8.1 km/h
572 30-06-2020 23:35:00 19.3 C 11.78 g/m*3 19.3 C 6.4 km/h
573 30-06-2020 23:40:00 19.3 C 11.78 g/m*3 19.3 C 4.8 km/h
574 30-06-2020 23:45:00 19.3 C 11.78 g/m*3 19.3 C 12.9 km/h
575 30-06-2020 23:50:00 19.3 C 11.78 g/m*3 19.3 C 6.4 km/h
Sensor: Nr:Datum:Temp:Abs-Feuchte:Windchill:Wind:
Aussen-T/F 576 30-06-2020 23:55:00 19.4 C 11.68 g/m*3 19.4 C 11.3 km/h
577 01-07-2020 00:00:00 19.4 C 11.68 g/m*3 19.4 C 11.3 km/h
578 01-07-2020 00:05:00 19.4 C 11.68 g/m*3 19.4 C 14.5 km/h
579 01-07-2020 00:10:00 19.4 C 11.68 g/m*3 19.4 C 11.3 km/h
580 01-07-2020 00:15:00 19.4 C 11.68 g/m*3 19.4 C 12.9 km/h
581 01-07-2020 00:20:00 19.4 C 11.68 g/m*3 19.4 C 8.1 km/h
582 01-07-2020 00:25:00 19.5 C 11.75 g/m*3 19.5 C 6.4 km/h
583 01-07-2020 00:30:00 19.4 C 11.68 g/m*3 19.4 C 11.3 km/h
584 01-07-2020 00:35:00 19.4 C 11.85 g/m*3 19.4 C 8.1 km/h
585 01-07-2020 00:40:00 19.4 C 11.85 g/m*3 19.4 C 6.4 km/h
586 01-07-2020 00:45:00 19.4 C 11.85 g/m*3 19.4 C 11.3 km/h
587 01-07-2020 00:50:00 19.4 C 11.85 g/m*3 19.4 C 8.1 km/h
588 01-07-2020 00:55:00 19.4 C 11.85 g/m*3 19.4 C 4.8 km/h
589 01-07-2020 01:00:00 19.4 C 11.85 g/m*3 19.4 C 4.8 km/h
590 01-07-2020 01:05:00 19.3 C 11.94 g/m*3 19.3 C 6.4 km/h
591 01-07-2020 01:10:00 19.3 C 11.94 g/m*3 19.3 C 9.7 km/h
592 01-07-2020 01:15:00 19.3 C 11.94 g/m*3 19.3 C 4.8 km/h
593 01-07-2020 01:20:00 19.2 C 11.87 g/m*3 19.2 C 1.6 km/h
594 01-07-2020 01:25:00 19.1 C 11.8 g/m*3 19.1 C 3.2 km/h
595 01-07-2020 01:30:00 19.1 C 11.97 g/m*3 19.1 C 8.1 km/h
596 01-07-2020 01:35:00 18.9 C 11.83 g/m*3 18.9 C 6.4 km/h
597 01-07-2020 01:40:00 18.8 C 11.76 g/m*3 18.8 C 6.4 km/h
598 01-07-2020 01:45:00 18.7 C 11.85 g/m*3 18.7 C 3.2 km/h
599 01-07-2020 01:50:00 18.7 C 11.85 g/m*3 18.7 C 8.1 km/h
600 01-07-2020 01:55:00 18.5 C 11.71 g/m*3 18.5 C 6.4 km/h
Sensor: Nr:Datum:Temp:Abs-Feuchte:Windchill:Wind:
Aussen-T/F 601 01-07-2020 02:00:00 18.4 C 11.8 g/m*3 18.4 C 8.1 km/h
602 01-07-2020 02:05:00 18.3 C 11.73 g/m*3 18.3 C 4.8 km/h
603 01-07-2020 02:10:00 18.2 C 11.81 g/m*3 18.2 C 1.6 km/h
604 01-07-2020 02:15:00 18.2 C 11.81 g/m*3 18.2 C 6.4 km/h
605 01-07-2020 02:20:00 18.1 C 11.74 g/m*3 18.1 C 4.8 km/h
606 01-07-2020 02:25:00 18 C 11.83 g/m*3 18 C 4.8 km/h
607 01-07-2020 02:30:00 18 C 11.67 g/m*3 18 C 11.3 km/h
608 01-07-2020 02:35:00 18.1 C 11.74 g/m*3 18.1 C 6.4 km/h
609 01-07-2020 02:40:00 18.1 C 11.74 g/m*3 18.1 C 14.5 km/h
610 01-07-2020 02:45:00 18.2 C 11.81 g/m*3 18.2 C 6.4 km/h
611 01-07-2020 02:50:00 18.2 C 11.81 g/m*3 18.2 C 9.7 km/h
612 01-07-2020 02:55:00 18.3 C 11.88 g/m*3 18.3 C 6.4 km/h
613 01-07-2020 03:00:00 18.2 C 11.81 g/m*3 18.2 C 3.2 km/h
614 01-07-2020 03:05:00 18.2 C 11.81 g/m*3 18.2 C 4.8 km/h
615 01-07-2020 03:10:00 18.2 C 11.97 g/m*3 18.2 C 3.2 km/h
616 01-07-2020 03:15:00 18.1 C 11.9 g/m*3 18.1 C 1.6 km/h
617 01-07-2020 03:20:00 17.9 C 11.76 g/m*3 17.9 C 4.8 km/h
618 01-07-2020 03:25:00 17.8 C 11.84 g/m*3 17.8 C 3.2 km/h
619 01-07-2020 03:30:00 17.7 C 11.77 g/m*3 17.7 C 3.2 km/h
620 01-07-2020 03:35:00 17.6 C 11.85 g/m*3 17.6 C 1.6 km/h
621 01-07-2020 03:40:00 17.5 C 11.93 g/m*3 17.5 C 4.8 km/h
622 01-07-2020 03:45:00 17.4 C 11.86 g/m*3 17.4 C 4.8 km/h
623 01-07-2020 03:50:00 17.4 C 11.86 g/m*3 17.4 C 1.6 km/h
624 01-07-2020 03:55:00 17.4 C 11.86 g/m*3 17.4 C 3.2 km/h
625 01-07-2020 04:00:00 17.4 C 11.86 g/m*3 17.4 C 0 km/h
Sensor: Nr:Datum:Temp:Abs-Feuchte:Windchill:Wind:
Aussen-T/F 626 01-07-2020 04:05:00 17.4 C 11.86 g/m*3 17.4 C 0 km/h
627 01-07-2020 04:10:00 17.3 C 11.79 g/m*3 17.3 C 4.8 km/h
628 01-07-2020 04:15:00 17.3 C 11.79 g/m*3 17.3 C 4.8 km/h
629 01-07-2020 04:20:00 17.3 C 11.79 g/m*3 17.3 C 6.4 km/h
630 01-07-2020 04:25:00 17.2 C 11.86 g/m*3 17.2 C 4.8 km/h
631 01-07-2020 04:30:00 17.2 C 11.72 g/m*3 17.2 C 1.6 km/h
632 01-07-2020 04:35:00 17.1 C 11.79 g/m*3 17.1 C 0 km/h
633 01-07-2020 04:40:00 17.1 C 11.79 g/m*3 17.1 C 1.6 km/h
634 01-07-2020 04:45:00 16.9 C 11.79 g/m*3 16.9 C 0 km/h
635 01-07-2020 04:50:00 16.9 C 11.79 g/m*3 16.9 C 0 km/h
636 01-07-2020 04:55:00 16.8 C 11.72 g/m*3 16.8 C 0 km/h
637 01-07-2020 05:00:00 16.8 C 11.72 g/m*3 16.8 C 0 km/h
638 01-07-2020 05:05:00 16.8 C 11.72 g/m*3 16.8 C 4.8 km/h
639 01-07-2020 05:10:00 16.8 C 11.72 g/m*3 16.8 C 0 km/h
640 01-07-2020 05:15:00 16.8 C 11.87 g/m*3 16.8 C 0 km/h
641 01-07-2020 05:20:00 16.8 C 11.87 g/m*3 16.8 C 0 km/h
642 01-07-2020 05:25:00 16.7 C 11.8 g/m*3 16.7 C 0 km/h
643 01-07-2020 05:30:00 16.6 C 11.72 g/m*3 16.6 C 0 km/h
644 01-07-2020 05:35:00 16.5 C 11.65 g/m*3 16.5 C 0 km/h
645 01-07-2020 05:40:00 16.3 C 11.65 g/m*3 16.3 C 0 km/h
646 01-07-2020 05:45:00 16.2 C 11.58 g/m*3 16.2 C 1.6 km/h
647 01-07-2020 05:50:00 16.1 C 11.65 g/m*3 16.1 C 0 km/h
648 01-07-2020 05:55:00 16.1 C 11.65 g/m*3 16.1 C 0 km/h
649 01-07-2020 06:00:00 16 C 11.72 g/m*3 16 C 0 km/h
650 01-07-2020 06:05:00 15.9 C 11.65 g/m*3 15.9 C 1.6 km/h
Sensor: Nr:Datum:Temp:Abs-Feuchte:Windchill:Wind:
Aussen-T/F 651 01-07-2020 06:10:00 15.8 C 11.58 g/m*3 15.8 C 1.6 km/h
652 01-07-2020 06:15:00 15.8 C 11.71 g/m*3 15.8 C 3.2 km/h
653 01-07-2020 06:20:00 15.7 C 11.64 g/m*3 15.7 C 0 km/h
654 01-07-2020 06:25:00 15.7 C 11.64 g/m*3 15.7 C 0 km/h
655 01-07-2020 06:30:00 15.7 C 11.64 g/m*3 15.7 C 1.6 km/h
656 01-07-2020 06:35:00 15.6 C 11.7 g/m*3 15.6 C 0 km/h
657 01-07-2020 06:40:00 15.6 C 11.7 g/m*3 15.6 C 1.6 km/h
658 01-07-2020 06:45:00 15.6 C 11.7 g/m*3 15.6 C 3.2 km/h
659 01-07-2020 06:50:00 15.6 C 11.7 g/m*3 15.6 C 3.2 km/h
660 01-07-2020 06:55:00 15.6 C 11.84 g/m*3 15.6 C 0 km/h
661 01-07-2020 07:00:00 15.7 C 11.91 g/m*3 15.7 C 0 km/h
662 01-07-2020 07:05:00 15.7 C 12.04 g/m*3 15.7 C 0 km/h
663 01-07-2020 07:10:00 15.9 C 12.19 g/m*3 15.9 C 1.6 km/h
664 01-07-2020 07:15:00 16.1 C 12.2 g/m*3 16.1 C 3.2 km/h
665 01-07-2020 07:20:00 16.3 C 12.35 g/m*3 16.3 C 1.6 km/h
666 01-07-2020 07:25:00 16.5 C 12.5 g/m*3 16.5 C 0 km/h
667 01-07-2020 07:30:00 16.7 C 12.65 g/m*3 16.7 C 4.8 km/h
668 01-07-2020 07:35:00 17.1 C 12.66 g/m*3 17.1 C 4.8 km/h
669 01-07-2020 07:40:00 17.2 C 12.59 g/m*3 17.2 C 4.8 km/h
670 01-07-2020 07:45:00 17.4 C 12.6 g/m*3 17.4 C 4.8 km/h
671 01-07-2020 07:50:00 17.6 C 12.6 g/m*3 17.6 C 11.3 km/h
672 01-07-2020 07:55:00 17.9 C 12.52 g/m*3 17.9 C 14.5 km/h
673 01-07-2020 08:00:00 18.2 C 12.59 g/m*3 18.2 C 9.7 km/h
674 01-07-2020 08:05:00 18.4 C 12.58 g/m*3 18.4 C 11.3 km/h
675 01-07-2020 08:10:00 18.6 C 12.73 g/m*3 18.6 C 4.8 km/h
Sensor: Nr:Datum:Temp:Abs-Feuchte:Windchill:Wind:
Aussen-T/F 676 01-07-2020 08:15:00 18.7 C 12.65 g/m*3 18.7 C 8.1 km/h
677 01-07-2020 08:20:00 18.8 C 12.72 g/m*3 18.8 C 11.3 km/h
678 01-07-2020 08:25:00 19 C 12.87 g/m*3 19 C 11.3 km/h
679 01-07-2020 08:30:00 19.2 C 12.86 g/m*3 19.2 C 11.3 km/h
680 01-07-2020 08:35:00 19.3 C 12.94 g/m*3 19.3 C 11.3 km/h
681 01-07-2020 08:40:00 19.5 C 12.92 g/m*3 19.5 C 9.7 km/h
682 01-07-2020 08:45:00 19.7 C 13.08 g/m*3 19.7 C 11.3 km/h
683 01-07-2020 08:50:00 19.8 C 13.15 g/m*3 19.8 C 9.7 km/h
684 01-07-2020 08:55:00 19.9 C 13.06 g/m*3 19.9 C 8.1 km/h
685 01-07-2020 09:00:00 20.1 C 13.21 g/m*3 20.1 C 8.1 km/h
686 01-07-2020 09:05:00 20.3 C 13.19 g/m*3 20.3 C 9.7 km/h
687 01-07-2020 09:10:00 20.3 C 13.19 g/m*3 20.3 C 6.4 km/h
688 01-07-2020 09:15:00 20.6 C 13.6 g/m*3 20.6 C 6.4 km/h
689 01-07-2020 09:20:00 20.8 C 13.58 g/m*3 20.8 C 6.4 km/h
690 01-07-2020 09:25:00 21.1 C 13.63 g/m*3 21.1 C 6.4 km/h
691 01-07-2020 09:30:00 21.2 C 13.71 g/m*3 21.2 C 14.5 km/h
692 01-07-2020 09:35:00 21.2 C 13.53 g/m*3 21.2 C 14.5 km/h
693 01-07-2020 09:40:00 21.2 C 13.71 g/m*3 21.2 C 9.7 km/h
694 01-07-2020 09:45:00 21.3 C 13.79 g/m*3 21.3 C 8.1 km/h
695 01-07-2020 09:50:00 21.3 C 13.61 g/m*3 21.3 C 11.3 km/h
696 01-07-2020 09:55:00 21.3 C 13.61 g/m*3 21.3 C 9.7 km/h
697 01-07-2020 10:00:00 21.4 C 13.87 g/m*3 21.4 C 8.1 km/h
698 01-07-2020 10:05:00 21.4 C 13.69 g/m*3 21.4 C 12.9 km/h
699 01-07-2020 10:10:00 21.5 C 13.95 g/m*3 21.5 C 8.1 km/h
700 01-07-2020 10:15:00 21.6 C 14.03 g/m*3 21.6 C 9.7 km/h
Sensor: Nr:Datum:Temp:Abs-Feuchte:Windchill:Wind:
Aussen-T/F 701 01-07-2020 10:20:00 21.7 C 13.73 g/m*3 21.7 C 17.7 km/h
702 01-07-2020 10:25:00 21.6 C 13.85 g/m*3 21.6 C 17.7 km/h
703 01-07-2020 10:30:00 21.6 C 13.85 g/m*3 21.6 C 12.9 km/h
704 01-07-2020 10:35:00 21.6 C 13.85 g/m*3 21.6 C 8.1 km/h
705 01-07-2020 10:40:00 21.6 C 13.85 g/m*3 21.6 C 11.3 km/h
706 01-07-2020 10:45:00 21.6 C 13.85 g/m*3 21.6 C 22.5 km/h
707 01-07-2020 10:50:00 21.5 C 13.77 g/m*3 21.5 C 22.5 km/h
708 01-07-2020 10:55:00 21.5 C 13.77 g/m*3 21.5 C 9.7 km/h
709 01-07-2020 11:00:00 21.6 C 13.85 g/m*3 21.6 C 11.3 km/h
710 01-07-2020 11:05:00 21.7 C 13.93 g/m*3 21.7 C 9.7 km/h
711 01-07-2020 11:10:00 21.7 C 13.54 g/m*3 21.7 C 14.5 km/h
712 01-07-2020 11:15:00 21.7 C 13.54 g/m*3 21.7 C 11.3 km/h
713 01-07-2020 11:20:00 21.8 C 13.62 g/m*3 21.8 C 12.9 km/h
714 01-07-2020 11:25:00 21.9 C 13.89 g/m*3 21.9 C 11.3 km/h
715 01-07-2020 11:30:00 22.1 C 14.05 g/m*3 22.1 C 12.9 km/h
716 01-07-2020 11:35:00 22.3 C 14.22 g/m*3 22.3 C 8.1 km/h
717 01-07-2020 11:40:00 22.4 C 13.9 g/m*3 22.4 C 12.9 km/h
718 01-07-2020 11:45:00 22.6 C 14.06 g/m*3 22.6 C 11.3 km/h
719 01-07-2020 11:50:00 22.7 C 13.94 g/m*3 22.7 C 12.9 km/h
720 01-07-2020 11:55:00 23 C 14.18 g/m*3 23 C 14.5 km/h
721 01-07-2020 12:00:00 23.2 C 13.93 g/m*3 23.2 C 12.9 km/h
722 01-07-2020 12:05:00 23.3 C 14.01 g/m*3 23.3 C 11.3 km/h
723 01-07-2020 12:10:00 23.4 C 13.88 g/m*3 23.4 C 14.5 km/h
724 01-07-2020 12:15:00 23.6 C 13.82 g/m*3 23.6 C 22.5 km/h
725 01-07-2020 12:20:00 23.4 C 13.88 g/m*3 23.4 C 14.5 km/h
Sensor: Nr:Datum:Temp:Abs-Feuchte:Windchill:Wind:
Aussen-T/F 726 01-07-2020 12:25:00 23.6 C 13.82 g/m*3 23.6 C 20.9 km/h
727 01-07-2020 12:30:00 23.6 C 14.04 g/m*3 23.6 C 19.3 km/h
728 01-07-2020 12:35:00 23.7 C 13.9 g/m*3 23.7 C 20.9 km/h
729 01-07-2020 12:40:00 23.7 C 13.69 g/m*3 23.7 C 20.9 km/h
730 01-07-2020 12:45:00 23.8 C 13.98 g/m*3 23.8 C 14.5 km/h
731 01-07-2020 12:50:00 23.8 C 13.77 g/m*3 23.8 C 17.7 km/h
732 01-07-2020 12:55:00 23.7 C 13.69 g/m*3 23.7 C 22.5 km/h
733 01-07-2020 13:00:00 23.9 C 14.06 g/m*3 23.9 C 17.7 km/h
734 01-07-2020 13:05:00 24.1 C 14.22 g/m*3 24.1 C 19.3 km/h
735 01-07-2020 13:10:00 24.2 C 14.08 g/m*3 24.2 C 22.5 km/h
736 01-07-2020 13:15:00 24.2 C 13.86 g/m*3 24.2 C 19.3 km/h
737 01-07-2020 13:20:00 24.2 C 14.08 g/m*3 24.2 C 19.3 km/h
738 01-07-2020 13:25:00 24.1 C 14 g/m*3 24.1 C 20.9 km/h
739 01-07-2020 13:30:00 24.1 C 14 g/m*3 24.1 C 19.3 km/h
740 01-07-2020 13:35:00 24 C 13.92 g/m*3 24 C 20.9 km/h
741 01-07-2020 13:40:00 24.1 C 14 g/m*3 24.1 C 14.5 km/h
742 01-07-2020 13:45:00 24.1 C 14 g/m*3 24.1 C 16.1 km/h
743 01-07-2020 13:50:00 24 C 13.92 g/m*3 24 C 24.1 km/h
744 01-07-2020 13:55:00 24.1 C 14 g/m*3 24.1 C 14.5 km/h
745 01-07-2020 14:00:00 24.3 C 13.94 g/m*3 24.3 C 12.9 km/h
746 01-07-2020 14:05:00 24.6 C 13.95 g/m*3 24.6 C 17.7 km/h
747 01-07-2020 14:10:00 24.6 C 13.95 g/m*3 24.6 C 20.9 km/h
748 01-07-2020 14:15:00 24.3 C 13.72 g/m*3 24.3 C 20.9 km/h
749 01-07-2020 14:20:00 24.4 C 14.02 g/m*3 24.4 C 17.7 km/h
750 01-07-2020 14:25:00 24.7 C 13.81 g/m*3 24.7 C 17.7 km/h
Sensor: Nr:Datum:Temp:Abs-Feuchte:Windchill:Wind:
Aussen-T/F 751 01-07-2020 14:30:00 25.1 C 14.12 g/m*3 25.1 C 22.5 km/h
752 01-07-2020 14:35:00 25.2 C 14.2 g/m*3 25.2 C 24.1 km/h
753 01-07-2020 14:40:00 25.1 C 14.12 g/m*3 25.1 C 19.3 km/h
754 01-07-2020 14:45:00 24.7 C 14.26 g/m*3 24.7 C 16.1 km/h
755 01-07-2020 14:50:00 24.8 C 14.34 g/m*3 24.8 C 20.9 km/h
756 01-07-2020 14:55:00 24.6 C 14.4 g/m*3 24.6 C 27.4 km/h
757 01-07-2020 15:00:00 24.5 C 13.88 g/m*3 24.5 C 22.5 km/h
758 01-07-2020 15:05:00 24.4 C 14.02 g/m*3 24.4 C 25.7 km/h
759 01-07-2020 15:10:00 24.4 C 14.02 g/m*3 24.4 C 14.5 km/h
760 01-07-2020 15:15:00 24.4 C 14.02 g/m*3 24.4 C 22.5 km/h
761 01-07-2020 15:20:00 24.4 C 14.02 g/m*3 24.4 C 17.7 km/h
762 01-07-2020 15:25:00 24.6 C 14.18 g/m*3 24.6 C 14.5 km/h
763 01-07-2020 15:30:00 24.8 C 14.34 g/m*3 24.8 C 20.9 km/h
764 01-07-2020 15:35:00 24.8 C 14.11 g/m*3 24.8 C 19.3 km/h
765 01-07-2020 15:40:00 24.9 C 14.42 g/m*3 24.9 C 14.5 km/h
766 01-07-2020 15:45:00 25.1 C 14.35 g/m*3 25.1 C 16.1 km/h
767 01-07-2020 15:50:00 25.2 C 14.43 g/m*3 25.2 C 17.7 km/h
768 01-07-2020 15:55:00 25.2 C 13.97 g/m*3 25.2 C 14.5 km/h
769 01-07-2020 16:00:00 25.2 C 14.2 g/m*3 25.2 C 22.5 km/h
770 01-07-2020 16:05:00 25.3 C 14.51 g/m*3 25.3 C 16.1 km/h
771 01-07-2020 16:10:00 25.3 C 14.51 g/m*3 25.3 C 14.5 km/h
772 01-07-2020 16:15:00 25.2 C 13.97 g/m*3 25.2 C 20.9 km/h
773 01-07-2020 16:20:00 24.9 C 13.96 g/m*3 24.9 C 19.3 km/h
774 01-07-2020 16:25:00 24.7 C 14.03 g/m*3 24.7 C 19.3 km/h
775 01-07-2020 16:30:00 24.8 C 14.34 g/m*3 24.8 C 17.7 km/h
Sensor: Nr:Datum:Temp:Abs-Feuchte:Windchill:Wind:
Aussen-T/F 776 01-07-2020 16:35:00 24.9 C 14.42 g/m*3 24.9 C 12.9 km/h
777 01-07-2020 16:40:00 25.3 C 14.51 g/m*3 25.3 C 11.3 km/h
778 01-07-2020 16:45:00 25.6 C 14.76 g/m*3 25.6 C 11.3 km/h
779 01-07-2020 16:50:00 25.7 C 14.36 g/m*3 25.7 C 12.9 km/h
780 01-07-2020 16:55:00 25.6 C 14.28 g/m*3 25.6 C 16.1 km/h
781 01-07-2020 17:00:00 25.4 C 14.13 g/m*3 25.4 C 20.9 km/h
782 01-07-2020 17:05:00 25.3 C 14.28 g/m*3 25.3 C 11.3 km/h
783 01-07-2020 17:10:00 25.3 C 14.28 g/m*3 25.3 C 14.5 km/h
784 01-07-2020 17:15:00 25.4 C 14.6 g/m*3 25.4 C 19.3 km/h
785 01-07-2020 17:20:00 25.6 C 14.05 g/m*3 25.6 C 24.1 km/h
786 01-07-2020 17:25:00 25.3 C 14.28 g/m*3 25.3 C 16.1 km/h
787 01-07-2020 17:30:00 25.5 C 14.2 g/m*3 25.5 C 14.5 km/h
788 01-07-2020 17:35:00 25.9 C 14.28 g/m*3 25.9 C 16.1 km/h
789 01-07-2020 17:40:00 26.4 C 14.44 g/m*3 26.4 C 12.9 km/h
790 01-07-2020 17:45:00 26.2 C 13.79 g/m*3 26.2 C 19.3 km/h
791 01-07-2020 17:50:00 25.7 C 13.65 g/m*3 25.7 C 17.7 km/h
792 01-07-2020 17:55:00 25.4 C 13.89 g/m*3 25.4 C 20.9 km/h
793 01-07-2020 18:00:00 25.4 C 14.13 g/m*3 25.4 C 12.9 km/h
794 01-07-2020 18:05:00 25.3 C 13.81 g/m*3 25.3 C 22.5 km/h
795 01-07-2020 18:10:00 25.3 C 13.58 g/m*3 25.3 C 14.5 km/h
796 01-07-2020 18:15:00 25.2 C 13.74 g/m*3 25.2 C 16.1 km/h
797 01-07-2020 18:20:00 25.1 C 13.66 g/m*3 25.1 C 17.7 km/h
798 01-07-2020 18:25:00 25.2 C 13.97 g/m*3 25.2 C 16.1 km/h
799 01-07-2020 18:30:00 25.1 C 13.66 g/m*3 25.1 C 12.9 km/h
800 01-07-2020 18:35:00 24.9 C 13.73 g/m*3 24.9 C 14.5 km/h
Sensor: Nr:Datum:Temp:Abs-Feuchte:Windchill:Wind:
Aussen-T/F 801 01-07-2020 18:40:00 24.8 C 13.88 g/m*3 24.8 C 9.7 km/h
802 01-07-2020 18:45:00 24.8 C 13.88 g/m*3 24.8 C 9.7 km/h
803 01-07-2020 18:50:00 24.8 C 13.88 g/m*3 24.8 C 9.7 km/h
804 01-07-2020 18:55:00 24.8 C 13.88 g/m*3 24.8 C 14.5 km/h
805 01-07-2020 19:00:00 24.7 C 13.81 g/m*3 24.7 C 19.3 km/h
806 01-07-2020 19:05:00 24.6 C 13.73 g/m*3 24.6 C 16.1 km/h
807 01-07-2020 19:10:00 24.5 C 13.88 g/m*3 24.5 C 9.7 km/h
808 01-07-2020 19:15:00 24.5 C 14.1 g/m*3 24.5 C 12.9 km/h
809 01-07-2020 19:20:00 24.6 C 13.95 g/m*3 24.6 C 9.7 km/h
810 01-07-2020 19:25:00 24.7 C 14.03 g/m*3 24.7 C 12.9 km/h
811 01-07-2020 19:30:00 24.8 C 13.88 g/m*3 24.8 C 16.1 km/h
812 01-07-2020 19:35:00 24.6 C 13.95 g/m*3 24.6 C 14.5 km/h
813 01-07-2020 19:40:00 24.4 C 14.02 g/m*3 24.4 C 9.7 km/h
814 01-07-2020 19:45:00 24.3 C 13.72 g/m*3 24.3 C 19.3 km/h
815 01-07-2020 19:50:00 24.3 C 13.94 g/m*3 24.3 C 11.3 km/h
816 01-07-2020 19:55:00 24.2 C 14.08 g/m*3 24.2 C 11.3 km/h
817 01-07-2020 20:00:00 24.2 C 14.08 g/m*3 24.2 C 11.3 km/h
818 01-07-2020 20:05:00 24.1 C 14 g/m*3 24.1 C 11.3 km/h
819 01-07-2020 20:10:00 24.1 C 14 g/m*3 24.1 C 4.8 km/h
820 01-07-2020 20:15:00 24.1 C 14.22 g/m*3 24.1 C 11.3 km/h
821 01-07-2020 20:20:00 24.2 C 13.86 g/m*3 24.2 C 14.5 km/h
822 01-07-2020 20:25:00 24.4 C 14.02 g/m*3 24.4 C 11.3 km/h
823 01-07-2020 20:30:00 24.7 C 14.03 g/m*3 24.7 C 19.3 km/h
824 01-07-2020 20:35:00 24.8 C 13.88 g/m*3 24.8 C 9.7 km/h
825 01-07-2020 20:40:00 24.9 C 14.19 g/m*3 24.9 C 14.5 km/h
Sensor: Nr:Datum:Temp:Abs-Feuchte:Windchill:Wind:
Aussen-T/F 826 01-07-2020 20:45:00 25 C 14.04 g/m*3 25 C 14.5 km/h
827 01-07-2020 20:50:00 25.1 C 14.12 g/m*3 25.1 C 9.7 km/h
828 01-07-2020 20:55:00 24.8 C 13.88 g/m*3 24.8 C 11.3 km/h
829 01-07-2020 21:00:00 24.4 C 13.8 g/m*3 24.4 C 14.5 km/h
830 01-07-2020 21:05:00 24.2 C 13.86 g/m*3 24.2 C 9.7 km/h
831 01-07-2020 21:10:00 23.9 C 13.85 g/m*3 23.9 C 14.5 km/h
832 01-07-2020 21:15:00 23.7 C 13.9 g/m*3 23.7 C 9.7 km/h
833 01-07-2020 21:20:00 23.6 C 13.82 g/m*3 23.6 C 11.3 km/h
834 01-07-2020 21:25:00 23.3 C 13.8 g/m*3 23.3 C 12.9 km/h
835 01-07-2020 21:30:00 23.2 C 13.72 g/m*3 23.2 C 6.4 km/h
836 01-07-2020 21:35:00 23 C 13.77 g/m*3 23 C 8.1 km/h
837 01-07-2020 21:40:00 22.8 C 13.61 g/m*3 22.8 C 8.1 km/h
838 01-07-2020 21:45:00 22.7 C 13.74 g/m*3 22.7 C 9.7 km/h
839 01-07-2020 21:50:00 22.7 C 13.74 g/m*3 22.7 C 8.1 km/h
840 01-07-2020 21:55:00 22.6 C 13.66 g/m*3 22.6 C 6.4 km/h
841 01-07-2020 22:00:00 22.6 C 13.86 g/m*3 22.6 C 0 km/h
842 01-07-2020 22:05:00 22.6 C 13.86 g/m*3 22.6 C 0 km/h
843 01-07-2020 22:10:00 22.4 C 13.9 g/m*3 22.4 C 3.2 km/h
844 01-07-2020 22:15:00 22.3 C 13.82 g/m*3 22.3 C 3.2 km/h
845 01-07-2020 22:20:00 22.2 C 13.74 g/m*3 22.2 C 4.8 km/h
846 01-07-2020 22:25:00 22.2 C 13.94 g/m*3 22.2 C 3.2 km/h
847 01-07-2020 22:30:00 22.1 C 13.86 g/m*3 22.1 C 4.8 km/h
848 01-07-2020 22:35:00 22 C 13.97 g/m*3 22 C 0 km/h
849 01-07-2020 22:40:00 21.9 C 13.89 g/m*3 21.9 C 1.6 km/h
850 01-07-2020 22:45:00 21.8 C 14.01 g/m*3 21.8 C 4.8 km/h
Sensor: Nr:Datum:Temp:Abs-Feuchte:Windchill:Wind:
Aussen-T/F 851 01-07-2020 22:50:00 21.7 C 13.93 g/m*3 21.7 C 3.2 km/h
852 01-07-2020 22:55:00 21.7 C 13.93 g/m*3 21.7 C 8.1 km/h
853 01-07-2020 23:00:00 21.7 C 14.31 g/m*3 21.7 C 14.5 km/h
854 01-07-2020 23:05:00 21.4 C 14.25 g/m*3 21.4 C 11.3 km/h
855 01-07-2020 23:10:00 21 C 14.29 g/m*3 21 C 14.5 km/h
856 01-07-2020 23:15:00 20.7 C 14.4 g/m*3 20.7 C 12.9 km/h
857 01-07-2020 23:20:00 20.2 C 14.34 g/m*3 20.2 C 12.9 km/h
858 01-07-2020 23:25:00 19.5 C 14.1 g/m*3 19.5 C 19.3 km/h
859 01-07-2020 23:30:00 18.9 C 14.09 g/m*3 18.9 C 14.5 km/h
860 01-07-2020 23:35:00 18.6 C 14.01 g/m*3 18.6 C 8.1 km/h
861 01-07-2020 23:40:00 18.3 C 13.92 g/m*3 18.3 C 3.2 km/h
862 01-07-2020 23:45:00 18.2 C 13.99 g/m*3 18.2 C 4.8 km/h
863 01-07-2020 23:50:00 18.1 C 13.91 g/m*3 18.1 C 6.4 km/h
864 01-07-2020 23:55:00 18 C 13.98 g/m*3 18 C 0 km/h
865 02-07-2020 00:00:00 17.9 C 14.05 g/m*3 17.9 C 1.6 km/h
866 02-07-2020 00:05:00 17.9 C 14.05 g/m*3 17.9 C 0 km/h
867 02-07-2020 00:10:00 17.9 C 14.05 g/m*3 17.9 C 0 km/h
868 02-07-2020 00:15:00 17.9 C 14.05 g/m*3 17.9 C 1.6 km/h
869 02-07-2020 00:20:00 17.9 C 14.2 g/m*3 17.9 C 0 km/h
870 02-07-2020 00:25:00 17.8 C 14.12 g/m*3 17.8 C 0 km/h
871 02-07-2020 00:30:00 17.8 C 14.12 g/m*3 17.8 C 0 km/h
872 02-07-2020 00:35:00 17.8 C 14.12 g/m*3 17.8 C 0 km/h
873 02-07-2020 00:40:00 17.8 C 14.12 g/m*3 17.8 C 0 km/h
874 02-07-2020 00:45:00 17.8 C 14.12 g/m*3 17.8 C 0 km/h
875 02-07-2020 00:50:00 17.8 C 14.12 g/m*3 17.8 C 0 km/h
Sensor: Nr:Datum:Temp:Abs-Feuchte:Windchill:Wind:
Aussen-T/F 876 02-07-2020 00:55:00 17.7 C 14.03 g/m*3 17.7 C 0 km/h
877 02-07-2020 01:00:00 17.7 C 14.03 g/m*3 17.7 C 0 km/h
878 02-07-2020 01:05:00 17.7 C 14.03 g/m*3 17.7 C 0 km/h
879 02-07-2020 01:10:00 17.7 C 14.18 g/m*3 17.7 C 0 km/h
880 02-07-2020 01:15:00 17.7 C 14.18 g/m*3 17.7 C 0 km/h
881 02-07-2020 01:20:00 17.8 C 14.27 g/m*3 17.8 C 0 km/h
882 02-07-2020 01:25:00 17.7 C 14.18 g/m*3 17.7 C 0 km/h
883 02-07-2020 01:30:00 17.7 C 14.18 g/m*3 17.7 C 0 km/h
884 02-07-2020 01:35:00 17.7 C 14.18 g/m*3 17.7 C 0 km/h
885 02-07-2020 01:40:00 17.8 C 14.27 g/m*3 17.8 C 0 km/h
886 02-07-2020 01:45:00 17.7 C 14.18 g/m*3 17.7 C 0 km/h
887 02-07-2020 01:50:00 17.7 C 14.18 g/m*3 17.7 C 0 km/h
888 02-07-2020 01:55:00 17.7 C 14.18 g/m*3 17.7 C 0 km/h
889 02-07-2020 02:00:00 17.7 C 14.18 g/m*3 17.7 C 0 km/h
890 02-07-2020 02:05:00 17.7 C 14.18 g/m*3 17.7 C 0 km/h
891 02-07-2020 02:10:00 17.6 C 14.1 g/m*3 17.6 C 0 km/h
892 02-07-2020 02:15:00 17.6 C 14.1 g/m*3 17.6 C 0 km/h
893 02-07-2020 02:20:00 17.6 C 14.1 g/m*3 17.6 C 0 km/h
894 02-07-2020 02:25:00 17.5 C 14.01 g/m*3 17.5 C 0 km/h
895 02-07-2020 02:30:00 17.4 C 14.08 g/m*3 17.4 C 1.6 km/h
896 02-07-2020 02:35:00 17.4 C 13.93 g/m*3 17.4 C 3.2 km/h
897 02-07-2020 02:40:00 17.3 C 13.85 g/m*3 17.3 C 0 km/h
898 02-07-2020 02:45:00 17.3 C 13.85 g/m*3 17.3 C 3.2 km/h
899 02-07-2020 02:50:00 17.3 C 14 g/m*3 17.3 C 0 km/h
900 02-07-2020 02:55:00 17.2 C 13.91 g/m*3 17.2 C 0 km/h
Sensor: Nr:Datum:Temp:Abs-Feuchte:Windchill:Wind:
Aussen-T/F 901 02-07-2020 03:00:00 17.1 C 13.83 g/m*3 17.1 C 4.8 km/h
902 02-07-2020 03:05:00 16.9 C 13.52 g/m*3 16.9 C 3.2 km/h
903 02-07-2020 03:10:00 16.8 C 13.44 g/m*3 16.8 C 4.8 km/h
904 02-07-2020 03:15:00 16.7 C 13.5 g/m*3 16.7 C 4.8 km/h
905 02-07-2020 03:20:00 16.7 C 13.5 g/m*3 16.7 C 4.8 km/h
906 02-07-2020 03:25:00 16.6 C 13.42 g/m*3 16.6 C 4.8 km/h
907 02-07-2020 03:30:00 16.5 C 13.34 g/m*3 16.5 C 4.8 km/h
908 02-07-2020 03:35:00 16.4 C 13.26 g/m*3 16.4 C 3.2 km/h
909 02-07-2020 03:40:00 16.3 C 13.04 g/m*3 16.3 C 3.2 km/h
910 02-07-2020 03:45:00 16.2 C 12.96 g/m*3 16.2 C 3.2 km/h
911 02-07-2020 03:50:00 16.1 C 13.02 g/m*3 16.1 C 0 km/h
912 02-07-2020 03:55:00 16 C 12.94 g/m*3 16 C 1.6 km/h
913 02-07-2020 04:00:00 15.9 C 12.87 g/m*3 15.9 C 4.8 km/h
914 02-07-2020 04:05:00 15.9 C 12.87 g/m*3 15.9 C 3.2 km/h
915 02-07-2020 04:10:00 15.8 C 12.79 g/m*3 15.8 C 4.8 km/h
916 02-07-2020 04:15:00 15.8 C 12.79 g/m*3 15.8 C 1.6 km/h
917 02-07-2020 04:20:00 15.7 C 12.71 g/m*3 15.7 C 3.2 km/h
918 02-07-2020 04:25:00 15.7 C 12.71 g/m*3 15.7 C 4.8 km/h
919 02-07-2020 04:30:00 15.7 C 12.71 g/m*3 15.7 C 1.6 km/h
920 02-07-2020 04:35:00 15.7 C 12.71 g/m*3 15.7 C 4.8 km/h
921 02-07-2020 04:40:00 15.7 C 12.71 g/m*3 15.7 C 4.8 km/h
922 02-07-2020 04:45:00 15.6 C 12.63 g/m*3 15.6 C 0 km/h
923 02-07-2020 04:50:00 15.6 C 12.63 g/m*3 15.6 C 0 km/h
924 02-07-2020 04:55:00 15.5 C 12.56 g/m*3 15.5 C 0 km/h
925 02-07-2020 05:00:00 15.4 C 12.48 g/m*3 15.4 C 0 km/h
Sensor: Nr:Datum:Temp:Abs-Feuchte:Windchill:Wind:
Aussen-T/F 926 02-07-2020 05:05:00 15.3 C 12.41 g/m*3 15.3 C 1.6 km/h
927 02-07-2020 05:10:00 15.2 C 12.33 g/m*3 15.2 C 0 km/h
928 02-07-2020 05:15:00 15.2 C 12.33 g/m*3 15.2 C 0 km/h
929 02-07-2020 05:20:00 15.1 C 12.26 g/m*3 15.1 C 0 km/h
930 02-07-2020 05:25:00 15 C 12.18 g/m*3 15 C 0 km/h
931 02-07-2020 05:30:00 14.9 C 12.11 g/m*3 14.9 C 0 km/h
932 02-07-2020 05:35:00 14.9 C 12.11 g/m*3 14.9 C 0 km/h
933 02-07-2020 05:40:00 14.9 C 12.11 g/m*3 14.9 C 0 km/h
934 02-07-2020 05:45:00 14.8 C 12.03 g/m*3 14.8 C 0 km/h
935 02-07-2020 05:50:00 14.9 C 12.24 g/m*3 14.9 C 0 km/h
936 02-07-2020 05:55:00 15 C 12.31 g/m*3 15 C 0 km/h
937 02-07-2020 06:00:00 15.1 C 12.39 g/m*3 15.1 C 0 km/h
938 02-07-2020 06:05:00 15.2 C 12.46 g/m*3 15.2 C 0 km/h
939 02-07-2020 06:10:00 15.3 C 12.54 g/m*3 15.3 C 0 km/h
940 02-07-2020 06:15:00 15.3 C 12.54 g/m*3 15.3 C 0 km/h
941 02-07-2020 06:20:00 15.4 C 12.61 g/m*3 15.4 C 0 km/h
942 02-07-2020 06:25:00 15.6 C 12.77 g/m*3 15.6 C 0 km/h
943 02-07-2020 06:30:00 15.6 C 12.77 g/m*3 15.6 C 0 km/h
944 02-07-2020 06:35:00 15.7 C 12.84 g/m*3 15.7 C 0 km/h
945 02-07-2020 06:40:00 15.8 C 12.92 g/m*3 15.8 C 0 km/h
946 02-07-2020 06:45:00 15.9 C 13.14 g/m*3 15.9 C 0 km/h
947 02-07-2020 06:50:00 15.9 C 13.14 g/m*3 15.9 C 0 km/h
948 02-07-2020 06:55:00 16.1 C 13.16 g/m*3 16.1 C 0 km/h
949 02-07-2020 07:00:00 16.2 C 13.24 g/m*3 16.2 C 0 km/h
950 02-07-2020 07:05:00 16.2 C 13.24 g/m*3 16.2 C 0 km/h
Sensor: Nr:Datum:Temp:Abs-Feuchte:Windchill:Wind:
Aussen-T/F 951 02-07-2020 07:10:00 16.2 C 13.38 g/m*3 16.2 C 0 km/h
952 02-07-2020 07:15:00 16.3 C 13.46 g/m*3 16.3 C 0 km/h
953 02-07-2020 07:20:00 16.3 C 13.46 g/m*3 16.3 C 0 km/h
954 02-07-2020 07:25:00 16.5 C 13.62 g/m*3 16.5 C 0 km/h
955 02-07-2020 07:30:00 16.6 C 13.7 g/m*3 16.6 C 0 km/h
956 02-07-2020 07:35:00 16.7 C 13.79 g/m*3 16.7 C 0 km/h
957 02-07-2020 07:40:00 16.7 C 13.79 g/m*3 16.7 C 0 km/h
958 02-07-2020 07:45:00 16.7 C 13.79 g/m*3 16.7 C 0 km/h
959 02-07-2020 07:50:00 16.7 C 13.79 g/m*3 16.7 C 0 km/h
960 02-07-2020 07:55:00 16.6 C 13.56 g/m*3 16.6 C 0 km/h
961 02-07-2020 08:00:00 16.6 C 13.56 g/m*3 16.6 C 0 km/h
962 02-07-2020 08:05:00 16.5 C 13.48 g/m*3 16.5 C 0 km/h
963 02-07-2020 08:10:00 16.4 C 13.4 g/m*3 16.4 C 0 km/h
964 02-07-2020 08:15:00 16.4 C 13.4 g/m*3 16.4 C 0 km/h
965 02-07-2020 08:20:00 16.4 C 13.4 g/m*3 16.4 C 0 km/h
966 02-07-2020 08:25:00 16.3 C 13.32 g/m*3 16.3 C 0 km/h
967 02-07-2020 08:30:00 16.4 C 13.4 g/m*3 16.4 C 0 km/h
968 02-07-2020 08:35:00 16.5 C 13.62 g/m*3 16.5 C 0 km/h
969 02-07-2020 08:40:00 16.6 C 13.7 g/m*3 16.6 C 0 km/h
970 02-07-2020 08:45:00 16.7 C 13.79 g/m*3 16.7 C 0 km/h
971 02-07-2020 08:50:00 16.9 C 13.95 g/m*3 16.9 C 0 km/h
972 02-07-2020 08:55:00 17.1 C 14.12 g/m*3 17.1 C 0 km/h
973 02-07-2020 09:00:00 17.2 C 14.2 g/m*3 17.2 C 0 km/h
974 02-07-2020 09:05:00 17.4 C 14.38 g/m*3 17.4 C 3.2 km/h
975 02-07-2020 09:10:00 17.6 C 14.55 g/m*3 17.6 C 3.2 km/h
Sensor: Nr:Datum:Temp:Abs-Feuchte:Windchill:Wind:
Aussen-T/F 976 02-07-2020 09:15:00 17.7 C 14.64 g/m*3 17.7 C 3.2 km/h
977 02-07-2020 09:20:00 17.8 C 14.72 g/m*3 17.8 C 0 km/h
978 02-07-2020 09:25:00 18.1 C 14.99 g/m*3 18.1 C 3.2 km/h
979 02-07-2020 09:30:00 18.1 C 14.99 g/m*3 18.1 C 1.6 km/h
980 02-07-2020 09:35:00 18.1 C 14.99 g/m*3 18.1 C 0 km/h
981 02-07-2020 09:40:00 18.3 C 15.17 g/m*3 18.3 C 0 km/h
982 02-07-2020 09:45:00 18.4 C 15.26 g/m*3 18.4 C 0 km/h
983 02-07-2020 09:50:00 18.5 C 15.35 g/m*3 18.5 C 0 km/h
984 02-07-2020 09:55:00 18.6 C 15.44 g/m*3 18.6 C 0 km/h
985 02-07-2020 10:00:00 18.7 C 15.53 g/m*3 18.7 C 0 km/h
986 02-07-2020 10:05:00 18.6 C 15.44 g/m*3 18.6 C 3.2 km/h
987 02-07-2020 10:10:00 18.3 C 15.01 g/m*3 18.3 C 6.4 km/h
988 02-07-2020 10:15:00 18.3 C 15.01 g/m*3 18.3 C 4.8 km/h
989 02-07-2020 10:20:00 18.5 C 15.19 g/m*3 18.5 C 1.6 km/h
990 02-07-2020 10:25:00 18.7 C 15.37 g/m*3 18.7 C 4.8 km/h
991 02-07-2020 10:30:00 18.7 C 15.05 g/m*3 18.7 C 4.8 km/h
992 02-07-2020 10:35:00 18.8 C 14.98 g/m*3 18.8 C 4.8 km/h
993 02-07-2020 10:40:00 19 C 15.32 g/m*3 19 C 4.8 km/h
994 02-07-2020 10:45:00 19.2 C 15.01 g/m*3 19.2 C 8.1 km/h
995 02-07-2020 10:50:00 19.6 C 15.36 g/m*3 19.6 C 11.3 km/h
996 02-07-2020 10:55:00 19.9 C 14.6 g/m*3 19.9 C 12.9 km/h
997 02-07-2020 11:00:00 20.3 C 14.95 g/m*3 20.3 C 12.9 km/h
998 02-07-2020 11:05:00 20.6 C 15.21 g/m*3 20.6 C 4.8 km/h
999 02-07-2020 11:10:00 20.7 C 14.58 g/m*3 20.7 C 8.1 km/h
1000 02-07-2020 11:15:00 20.7 C 14.04 g/m*3 20.7 C 9.7 km/h
Sensor: Nr:Datum:Temp:Abs-Feuchte:Windchill:Wind:
Aussen-T/F 1001 02-07-2020 11:20:00 20.7 C 14.4 g/m*3 20.7 C 12.9 km/h
1002 02-07-2020 11:25:00 20.8 C 13.76 g/m*3 20.8 C 12.9 km/h
1003 02-07-2020 11:30:00 21.1 C 13.82 g/m*3 21.1 C 14.5 km/h
1004 02-07-2020 11:35:00 21.3 C 13.61 g/m*3 21.3 C 19.3 km/h
1005 02-07-2020 11:40:00 21.6 C 13.66 g/m*3 21.6 C 9.7 km/h
1006 02-07-2020 11:45:00 21.7 C 13.35 g/m*3 21.7 C 17.7 km/h
1007 02-07-2020 11:50:00 21.8 C 13.62 g/m*3 21.8 C 16.1 km/h
1008 02-07-2020 11:55:00 21.6 C 13.09 g/m*3 21.6 C 16.1 km/h
1009 02-07-2020 12:00:00 21.3 C 13.05 g/m*3 21.3 C 14.5 km/h
1010 02-07-2020 12:05:00 21.2 C 13.16 g/m*3 21.2 C 9.7 km/h
1011 02-07-2020 12:10:00 21.1 C 13.27 g/m*3 21.1 C 11.3 km/h
1012 02-07-2020 12:15:00 21.4 C 12.94 g/m*3 21.4 C 14.5 km/h
1013 02-07-2020 12:20:00 21.7 C 11.64 g/m*3 21.7 C 19.3 km/h
1014 02-07-2020 12:25:00 21.8 C 11.9 g/m*3 21.8 C 22.5 km/h
1015 02-07-2020 12:30:00 21.8 C 11.9 g/m*3 21.8 C 12.9 km/h
1016 02-07-2020 12:35:00 22.1 C 11.91 g/m*3 22.1 C 14.5 km/h
1017 02-07-2020 12:40:00 22.4 C 12.11 g/m*3 22.4 C 17.7 km/h
1018 02-07-2020 12:45:00 22.6 C 12.25 g/m*3 22.6 C 11.3 km/h
1019 02-07-2020 12:50:00 22.7 C 12.32 g/m*3 22.7 C 12.9 km/h
1020 02-07-2020 12:55:00 22.7 C 12.32 g/m*3 22.7 C 14.5 km/h
1021 02-07-2020 13:00:00 22.7 C 11.72 g/m*3 22.7 C 17.7 km/h
1022 02-07-2020 13:05:00 22.6 C 11.45 g/m*3 22.6 C 19.3 km/h
1023 02-07-2020 13:10:00 22.7 C 11.92 g/m*3 22.7 C 12.9 km/h
1024 02-07-2020 13:15:00 22.9 C 11.44 g/m*3 22.9 C 19.3 km/h
1025 02-07-2020 13:20:00 23.3 C 12.13 g/m*3 23.3 C 14.5 km/h
Sensor: Nr:Datum:Temp:Abs-Feuchte:Windchill:Wind:
Aussen-T/F 1026 02-07-2020 13:25:00 23.7 C 11.55 g/m*3 23.7 C 17.7 km/h
1027 02-07-2020 13:30:00 23.8 C 13.12 g/m*3 23.8 C 14.5 km/h
1028 02-07-2020 13:35:00 23.2 C 13.31 g/m*3 23.2 C 14.5 km/h
1029 02-07-2020 13:40:00 22.3 C 13.03 g/m*3 22.3 C 14.5 km/h
1030 02-07-2020 13:45:00 21.6 C 12.9 g/m*3 21.6 C 11.3 km/h
1031 02-07-2020 13:50:00 21.2 C 12.79 g/m*3 21.2 C 9.7 km/h
1032 02-07-2020 13:55:00 20.9 C 12.93 g/m*3 20.9 C 12.9 km/h
1033 02-07-2020 14:00:00 20.9 C 12.93 g/m*3 20.9 C 11.3 km/h
1034 02-07-2020 14:05:00 20.8 C 12.86 g/m*3 20.8 C 11.3 km/h
1035 02-07-2020 14:10:00 20.8 C 12.86 g/m*3 20.8 C 9.7 km/h
1036 02-07-2020 14:15:00 20.7 C 12.78 g/m*3 20.7 C 4.8 km/h
1037 02-07-2020 14:20:00 20.7 C 12.78 g/m*3 20.7 C 3.2 km/h
1038 02-07-2020 14:25:00 20.6 C 13.6 g/m*3 20.6 C 0 km/h
1039 02-07-2020 14:30:00 20.6 C 13.96 g/m*3 20.6 C 0 km/h
1040 02-07-2020 14:35:00 20.4 C 13.62 g/m*3 20.4 C 1.6 km/h
1041 02-07-2020 14:40:00 20.3 C 13.37 g/m*3 20.3 C 0 km/h
1042 02-07-2020 14:45:00 20.3 C 13.89 g/m*3 20.3 C 1.6 km/h
1043 02-07-2020 14:50:00 20.3 C 13.19 g/m*3 20.3 C 3.2 km/h
1044 02-07-2020 14:55:00 20.6 C 13.24 g/m*3 20.6 C 4.8 km/h
1045 02-07-2020 15:00:00 20.9 C 13.11 g/m*3 20.9 C 4.8 km/h
1046 02-07-2020 15:05:00 21.2 C 12.97 g/m*3 21.2 C 3.2 km/h
1047 02-07-2020 15:10:00 21.3 C 13.05 g/m*3 21.3 C 8.1 km/h
1048 02-07-2020 15:15:00 21.3 C 12.86 g/m*3 21.3 C 8.1 km/h
1049 02-07-2020 15:20:00 21.2 C 12.79 g/m*3 21.2 C 16.1 km/h
1050 02-07-2020 15:25:00 21.1 C 12.71 g/m*3 21.1 C 8.1 km/h
Sensor: Nr:Datum:Temp:Abs-Feuchte:Windchill:Wind:
Aussen-T/F 1051 02-07-2020 15:30:00 21.1 C 12.71 g/m*3 21.1 C 9.7 km/h
1052 02-07-2020 15:35:00 20.9 C 12.75 g/m*3 20.9 C 9.7 km/h
1053 02-07-2020 15:40:00 20.9 C 12.75 g/m*3 20.9 C 12.9 km/h
1054 02-07-2020 15:45:00 20.9 C 12.93 g/m*3 20.9 C 6.4 km/h
1055 02-07-2020 15:50:00 21 C 12.82 g/m*3 21 C 6.4 km/h
1056 02-07-2020 15:55:00 21.1 C 12.71 g/m*3 21.1 C 9.7 km/h
1057 02-07-2020 16:00:00 21.3 C 12.86 g/m*3 21.3 C 4.8 km/h
1058 02-07-2020 16:05:00 21.7 C 12.78 g/m*3 21.7 C 3.2 km/h
1059 02-07-2020 16:10:00 21.8 C 13.05 g/m*3 21.8 C 0 km/h
1060 02-07-2020 16:15:00 21.8 C 13.24 g/m*3 21.8 C 0 km/h
1061 02-07-2020 16:20:00 21.8 C 12.85 g/m*3 21.8 C 0 km/h
1062 02-07-2020 16:25:00 21.9 C 12.74 g/m*3 21.9 C 4.8 km/h
1063 02-07-2020 16:30:00 22.1 C 13.27 g/m*3 22.1 C 3.2 km/h
1064 02-07-2020 16:35:00 22.2 C 12.76 g/m*3 22.2 C 4.8 km/h
1065 02-07-2020 16:40:00 22 C 12.62 g/m*3 22 C 6.4 km/h
1066 02-07-2020 16:45:00 21.8 C 13.05 g/m*3 21.8 C 3.2 km/h
1067 02-07-2020 16:50:00 21.8 C 13.62 g/m*3 21.8 C 1.6 km/h
1068 02-07-2020 16:55:00 21.7 C 12.97 g/m*3 21.7 C 3.2 km/h
1069 02-07-2020 17:00:00 21.9 C 12.93 g/m*3 21.9 C 0 km/h
1070 02-07-2020 17:05:00 22.1 C 13.47 g/m*3 22.1 C 3.2 km/h
1071 02-07-2020 17:10:00 22.3 C 12.05 g/m*3 22.3 C 9.7 km/h
1072 02-07-2020 17:15:00 22.5 C 12.18 g/m*3 22.5 C 12.9 km/h
1073 02-07-2020 17:20:00 22.7 C 11.92 g/m*3 22.7 C 19.3 km/h
1074 02-07-2020 17:25:00 22.7 C 11.72 g/m*3 22.7 C 16.1 km/h
1075 02-07-2020 17:30:00 22.7 C 12.32 g/m*3 22.7 C 14.5 km/h
Sensor: Nr:Datum:Temp:Abs-Feuchte:Windchill:Wind:
Aussen-T/F 1076 02-07-2020 17:35:00 23.2 C 12.68 g/m*3 23.2 C 17.7 km/h
1077 02-07-2020 17:40:00 23.8 C 12.48 g/m*3 23.8 C 19.3 km/h
1078 02-07-2020 17:45:00 24 C 11.75 g/m*3 24 C 14.5 km/h
1079 02-07-2020 17:50:00 23.5 C 11.63 g/m*3 23.5 C 16.1 km/h
1080 02-07-2020 17:55:00 22.9 C 11.24 g/m*3 22.9 C 22.5 km/h
1081 02-07-2020 18:00:00 22.8 C 11.38 g/m*3 22.8 C 19.3 km/h
1082 02-07-2020 18:05:00 22.6 C 11.25 g/m*3 22.6 C 12.9 km/h
1083 02-07-2020 18:10:00 22.4 C 11.52 g/m*3 22.4 C 14.5 km/h
1084 02-07-2020 18:15:00 22.2 C 11.58 g/m*3 22.2 C 11.3 km/h
1085 02-07-2020 18:20:00 22 C 11.84 g/m*3 22 C 14.5 km/h
1086 02-07-2020 18:25:00 21.7 C 12.21 g/m*3 21.7 C 19.3 km/h
1087 02-07-2020 18:30:00 21.3 C 12.3 g/m*3 21.3 C 19.3 km/h
1088 02-07-2020 18:35:00 20.9 C 12.2 g/m*3 20.9 C 17.7 km/h
1089 02-07-2020 18:40:00 20.7 C 12.24 g/m*3 20.7 C 11.3 km/h
1090 02-07-2020 18:45:00 20.3 C 11.96 g/m*3 20.3 C 12.9 km/h
1091 02-07-2020 18:50:00 20.1 C 12.17 g/m*3 20.1 C 11.3 km/h
1092 02-07-2020 18:55:00 19.9 C 12.2 g/m*3 19.9 C 11.3 km/h
1093 02-07-2020 19:00:00 19.7 C 12.23 g/m*3 19.7 C 14.5 km/h
1094 02-07-2020 19:05:00 19.6 C 12.32 g/m*3 19.6 C 11.3 km/h
1095 02-07-2020 19:10:00 19.4 C 12.18 g/m*3 19.4 C 8.1 km/h
1096 02-07-2020 19:15:00 19.3 C 12.11 g/m*3 19.3 C 9.7 km/h
1097 02-07-2020 19:20:00 19.3 C 12.27 g/m*3 19.3 C 8.1 km/h
1098 02-07-2020 19:25:00 19.2 C 11.87 g/m*3 19.2 C 8.1 km/h
1099 02-07-2020 19:30:00 19.1 C 11.8 g/m*3 19.1 C 6.4 km/h
1100 02-07-2020 19:35:00 19 C 11.73 g/m*3 19 C 8.1 km/h
Sensor: Nr:Datum:Temp:Abs-Feuchte:Windchill:Wind:
Aussen-T/F 1101 02-07-2020 19:40:00 18.9 C 11.66 g/m*3 18.9 C 8.1 km/h
1102 02-07-2020 19:45:00 18.9 C 11.83 g/m*3 18.9 C 6.4 km/h
1103 02-07-2020 19:50:00 18.8 C 11.76 g/m*3 18.8 C 6.4 km/h
1104 02-07-2020 19:55:00 18.8 C 11.92 g/m*3 18.8 C 3.2 km/h
1105 02-07-2020 20:00:00 18.8 C 11.92 g/m*3 18.8 C 1.6 km/h
1106 02-07-2020 20:05:00 18.8 C 11.92 g/m*3 18.8 C 4.8 km/h
1107 02-07-2020 20:10:00 18.8 C 11.76 g/m*3 18.8 C 6.4 km/h
1108 02-07-2020 20:15:00 18.8 C 11.76 g/m*3 18.8 C 8.1 km/h
1109 02-07-2020 20:20:00 18.8 C 11.76 g/m*3 18.8 C 6.4 km/h
1110 02-07-2020 20:25:00 18.9 C 11.83 g/m*3 18.9 C 4.8 km/h
1111 02-07-2020 20:30:00 18.9 C 11.66 g/m*3 18.9 C 9.7 km/h
1112 02-07-2020 20:35:00 19.2 C 11.71 g/m*3 19.2 C 8.1 km/h
1113 02-07-2020 20:40:00 19.4 C 11.51 g/m*3 19.4 C 9.7 km/h
1114 02-07-2020 20:45:00 19.6 C 11.48 g/m*3 19.6 C 8.1 km/h
1115 02-07-2020 20:50:00 19.8 C 11.61 g/m*3 19.8 C 1.6 km/h
1116 02-07-2020 20:55:00 19.8 C 11.61 g/m*3 19.8 C 6.4 km/h
1117 02-07-2020 21:00:00 19.7 C 11.55 g/m*3 19.7 C 6.4 km/h
1118 02-07-2020 21:05:00 19.5 C 11.41 g/m*3 19.5 C 8.1 km/h
1119 02-07-2020 21:10:00 19.3 C 11.44 g/m*3 19.3 C 8.1 km/h
1120 02-07-2020 21:15:00 19.2 C 11.71 g/m*3 19.2 C 1.6 km/h
1121 02-07-2020 21:20:00 19.1 C 11.64 g/m*3 19.1 C 3.2 km/h
1122 02-07-2020 21:25:00 18.9 C 11.66 g/m*3 18.9 C 3.2 km/h
1123 02-07-2020 21:30:00 18.8 C 11.76 g/m*3 18.8 C 4.8 km/h
1124 02-07-2020 21:35:00 18.7 C 11.69 g/m*3 18.7 C 3.2 km/h
1125 02-07-2020 21:40:00 18.5 C 11.87 g/m*3 18.5 C 3.2 km/h
Sensor: Nr:Datum:Temp:Abs-Feuchte:Windchill:Wind:
Aussen-T/F 1126 02-07-2020 21:45:00 18.3 C 11.88 g/m*3 18.3 C 3.2 km/h
1127 02-07-2020 21:50:00 18.2 C 11.97 g/m*3 18.2 C 3.2 km/h
1128 02-07-2020 21:55:00 18.1 C 11.9 g/m*3 18.1 C 1.6 km/h
1129 02-07-2020 22:00:00 18 C 11.98 g/m*3 18 C 3.2 km/h
1130 02-07-2020 22:05:00 17.9 C 11.91 g/m*3 17.9 C 3.2 km/h
1131 02-07-2020 22:10:00 17.8 C 11.84 g/m*3 17.8 C 4.8 km/h
1132 02-07-2020 22:15:00 17.7 C 11.77 g/m*3 17.7 C 3.2 km/h
1133 02-07-2020 22:20:00 17.6 C 11.85 g/m*3 17.6 C 8.1 km/h
1134 02-07-2020 22:25:00 17.5 C 11.78 g/m*3 17.5 C 3.2 km/h
1135 02-07-2020 22:30:00 17.4 C 11.71 g/m*3 17.4 C 3.2 km/h
1136 02-07-2020 22:35:00 17.3 C 11.64 g/m*3 17.3 C 4.8 km/h
1137 02-07-2020 22:40:00 17.2 C 11.72 g/m*3 17.2 C 4.8 km/h
1138 02-07-2020 22:45:00 17.1 C 11.65 g/m*3 17.1 C 3.2 km/h
1139 02-07-2020 22:50:00 16.9 C 11.51 g/m*3 16.9 C 6.4 km/h
1140 02-07-2020 22:55:00 16.8 C 11.58 g/m*3 16.8 C 4.8 km/h
1141 02-07-2020 23:00:00 16.7 C 11.51 g/m*3 16.7 C 4.8 km/h
1142 02-07-2020 23:05:00 16.6 C 11.44 g/m*3 16.6 C 4.8 km/h
1143 02-07-2020 23:10:00 16.4 C 11.45 g/m*3 16.4 C 4.8 km/h
1144 02-07-2020 23:15:00 16.2 C 11.31 g/m*3 16.2 C 3.2 km/h
1145 02-07-2020 23:20:00 16.1 C 11.38 g/m*3 16.1 C 3.2 km/h
1146 02-07-2020 23:25:00 15.9 C 11.24 g/m*3 15.9 C 3.2 km/h
1147 02-07-2020 23:30:00 15.7 C 11.24 g/m*3 15.7 C 3.2 km/h
1148 02-07-2020 23:35:00 15.6 C 11.17 g/m*3 15.6 C 3.2 km/h
1149 02-07-2020 23:40:00 15.5 C 11.24 g/m*3 15.5 C 4.8 km/h
1150 02-07-2020 23:45:00 15.4 C 11.17 g/m*3 15.4 C 1.6 km/h
Sensor: Nr:Datum:Temp:Abs-Feuchte:Windchill:Wind:
Aussen-T/F 1151 02-07-2020 23:50:00 15.3 C 11.1 g/m*3 15.3 C 0 km/h
1152 02-07-2020 23:55:00 15.3 C 11.23 g/m*3 15.3 C 4.8 km/h
1153 03-07-2020 00:00:00 15.2 C 11.16 g/m*3 15.2 C 1.6 km/h
1154 03-07-2020 00:05:00 15.1 C 11.09 g/m*3 15.1 C 1.6 km/h
1155 03-07-2020 00:10:00 15.1 C 11.09 g/m*3 15.1 C 4.8 km/h
1156 03-07-2020 00:15:00 15 C 11.16 g/m*3 15 C 4.8 km/h
1157 03-07-2020 00:20:00 15 C 11.16 g/m*3 15 C 3.2 km/h
1158 03-07-2020 00:25:00 14.9 C 11.09 g/m*3 14.9 C 0 km/h
1159 03-07-2020 00:30:00 14.9 C 11.09 g/m*3 14.9 C 1.6 km/h
1160 03-07-2020 00:35:00 14.8 C 11.02 g/m*3 14.8 C 3.2 km/h
1161 03-07-2020 00:40:00 14.8 C 11.02 g/m*3 14.8 C 1.6 km/h
1162 03-07-2020 00:45:00 14.7 C 11.08 g/m*3 14.7 C 1.6 km/h
1163 03-07-2020 00:50:00 14.6 C 11.01 g/m*3 14.6 C 1.6 km/h
1164 03-07-2020 00:55:00 14.5 C 10.94 g/m*3 14.5 C 0 km/h
1165 03-07-2020 01:00:00 14.4 C 10.88 g/m*3 14.4 C 1.6 km/h
1166 03-07-2020 01:05:00 14.3 C 10.93 g/m*3 14.3 C 1.6 km/h
1167 03-07-2020 01:10:00 14.3 C 10.93 g/m*3 14.3 C 1.6 km/h
1168 03-07-2020 01:15:00 14.2 C 10.87 g/m*3 14.2 C 0 km/h
1169 03-07-2020 01:20:00 14.2 C 10.87 g/m*3 14.2 C 1.6 km/h
1170 03-07-2020 01:25:00 14.1 C 10.8 g/m*3 14.1 C 1.6 km/h
1171 03-07-2020 01:30:00 14 C 10.74 g/m*3 14 C 0 km/h
1172 03-07-2020 01:35:00 13.9 C 10.67 g/m*3 13.9 C 0 km/h
1173 03-07-2020 01:40:00 13.8 C 10.72 g/m*3 13.8 C 1.6 km/h
1174 03-07-2020 01:45:00 13.8 C 10.72 g/m*3 13.8 C 1.6 km/h
1175 03-07-2020 01:50:00 13.7 C 10.66 g/m*3 13.7 C 3.2 km/h
Sensor: Nr:Datum:Temp:Abs-Feuchte:Windchill:Wind:
Aussen-T/F 1176 03-07-2020 01:55:00 13.7 C 10.66 g/m*3 13.7 C 6.4 km/h
1177 03-07-2020 02:00:00 13.7 C 10.66 g/m*3 13.7 C 0 km/h
1178 03-07-2020 02:05:00 13.6 C 10.59 g/m*3 13.6 C 0 km/h
1179 03-07-2020 02:10:00 13.6 C 10.59 g/m*3 13.6 C 0 km/h
1180 03-07-2020 02:15:00 13.5 C 10.53 g/m*3 13.5 C 0 km/h
1181 03-07-2020 02:20:00 13.4 C 10.46 g/m*3 13.4 C 1.6 km/h
1182 03-07-2020 02:25:00 13.3 C 10.4 g/m*3 13.3 C 0 km/h
1183 03-07-2020 02:30:00 13.3 C 10.51 g/m*3 13.3 C 0 km/h
1184 03-07-2020 02:35:00 13.2 C 10.45 g/m*3 13.2 C 0 km/h
1185 03-07-2020 02:40:00 13.2 C 10.45 g/m*3 13.2 C 1.6 km/h
1186 03-07-2020 02:45:00 13.1 C 10.38 g/m*3 13.1 C 1.6 km/h
1187 03-07-2020 02:50:00 13 C 10.32 g/m*3 13 C 0 km/h
1188 03-07-2020 02:55:00 12.9 C 10.26 g/m*3 12.9 C 0 km/h
1189 03-07-2020 03:00:00 12.8 C 10.19 g/m*3 12.8 C 0 km/h
1190 03-07-2020 03:05:00 12.8 C 10.19 g/m*3 12.8 C 0 km/h
1191 03-07-2020 03:10:00 12.7 C 10.24 g/m*3 12.7 C 0 km/h
1192 03-07-2020 03:15:00 12.6 C 10.18 g/m*3 12.6 C 0 km/h
1193 03-07-2020 03:20:00 12.4 C 10.05 g/m*3 12.4 C 0 km/h
1194 03-07-2020 03:25:00 12.3 C 9.99 g/m*3 12.3 C 1.6 km/h
1195 03-07-2020 03:30:00 12.3 C 9.99 g/m*3 12.3 C 0 km/h
1196 03-07-2020 03:35:00 12.3 C 10.1 g/m*3 12.3 C 0 km/h
1197 03-07-2020 03:40:00 12.3 C 10.1 g/m*3 12.3 C 0 km/h
1198 03-07-2020 03:45:00 12.3 C 10.1 g/m*3 12.3 C 1.6 km/h
1199 03-07-2020 03:50:00 12.3 C 10.1 g/m*3 12.3 C 0 km/h
1200 03-07-2020 03:55:00 12.3 C 10.1 g/m*3 12.3 C 0 km/h
Sensor: Nr:Datum:Temp:Abs-Feuchte:Windchill:Wind:
Aussen-T/F 1201 03-07-2020 04:00:00 12.2 C 10.04 g/m*3 12.2 C 3.2 km/h
1202 03-07-2020 04:05:00 12.2 C 10.04 g/m*3 12.2 C 1.6 km/h
1203 03-07-2020 04:10:00 12.1 C 9.97 g/m*3 12.1 C 3.2 km/h
1204 03-07-2020 04:15:00 12.1 C 9.97 g/m*3 12.1 C 0 km/h
1205 03-07-2020 04:20:00 11.9 C 9.85 g/m*3 11.9 C 3.2 km/h
1206 03-07-2020 04:25:00 11.8 C 9.79 g/m*3 11.8 C 1.6 km/h
1207 03-07-2020 04:30:00 11.8 C 9.79 g/m*3 11.8 C 0 km/h
1208 03-07-2020 04:35:00 11.7 C 9.73 g/m*3 11.7 C 0 km/h
1209 03-07-2020 04:40:00 11.6 C 9.67 g/m*3 11.6 C 1.6 km/h
1210 03-07-2020 04:45:00 11.7 C 9.83 g/m*3 11.7 C 0 km/h
1211 03-07-2020 04:50:00 11.7 C 9.83 g/m*3 11.7 C 1.6 km/h
1212 03-07-2020 04:55:00 11.7 C 9.83 g/m*3 11.7 C 0 km/h
1213 03-07-2020 05:00:00 11.6 C 9.77 g/m*3 11.6 C 0 km/h
1214 03-07-2020 05:05:00 11.6 C 9.77 g/m*3 11.6 C 1.6 km/h
1215 03-07-2020 05:10:00 11.6 C 9.77 g/m*3 11.6 C 0 km/h
1216 03-07-2020 05:15:00 11.5 C 9.71 g/m*3 11.5 C 0 km/h
1217 03-07-2020 05:20:00 11.4 C 9.65 g/m*3 11.4 C 0 km/h
1218 03-07-2020 05:25:00 11.4 C 9.65 g/m*3 11.4 C 0 km/h
1219 03-07-2020 05:30:00 11.3 C 9.59 g/m*3 11.3 C 0 km/h
1220 03-07-2020 05:35:00 11.3 C 9.59 g/m*3 11.3 C 0 km/h
1221 03-07-2020 05:40:00 11.3 C 9.59 g/m*3 11.3 C 4.8 km/h
1222 03-07-2020 05:45:00 11.3 C 9.59 g/m*3 11.3 C 0 km/h
1223 03-07-2020 05:50:00 11.2 C 9.53 g/m*3 11.2 C 0 km/h
1224 03-07-2020 05:55:00 11.2 C 9.53 g/m*3 11.2 C 1.6 km/h
1225 03-07-2020 06:00:00 11.2 C 9.53 g/m*3 11.2 C 0 km/h
Sensor: Nr:Datum:Temp:Abs-Feuchte:Windchill:Wind:
Aussen-T/F 1226 03-07-2020 06:05:00 11.2 C 9.53 g/m*3 11.2 C 1.6 km/h
1227 03-07-2020 06:10:00 11.2 C 9.53 g/m*3 11.2 C 0 km/h
1228 03-07-2020 06:15:00 11.2 C 9.63 g/m*3 11.2 C 1.6 km/h
1229 03-07-2020 06:20:00 11.3 C 9.69 g/m*3 11.3 C 0 km/h
1230 03-07-2020 06:25:00 11.3 C 9.69 g/m*3 11.3 C 0 km/h
1231 03-07-2020 06:30:00 11.4 C 9.75 g/m*3 11.4 C 0 km/h
1232 03-07-2020 06:35:00 11.4 C 9.75 g/m*3 11.4 C 0 km/h
1233 03-07-2020 06:40:00 11.4 C 9.75 g/m*3 11.4 C 0 km/h
1234 03-07-2020 06:45:00 11.5 C 9.81 g/m*3 11.5 C 0 km/h
1235 03-07-2020 06:50:00 11.5 C 9.81 g/m*3 11.5 C 0 km/h
1236 03-07-2020 06:55:00 11.4 C 9.75 g/m*3 11.4 C 0 km/h
1237 03-07-2020 07:00:00 11.4 C 9.75 g/m*3 11.4 C 0 km/h
1238 03-07-2020 07:05:00 11.5 C 9.81 g/m*3 11.5 C 0 km/h
1239 03-07-2020 07:10:00 11.5 C 9.81 g/m*3 11.5 C 0 km/h
1240 03-07-2020 07:15:00 11.5 C 9.81 g/m*3 11.5 C 0 km/h
1241 03-07-2020 07:20:00 11.6 C 9.87 g/m*3 11.6 C 0 km/h
1242 03-07-2020 07:25:00 11.6 C 9.87 g/m*3 11.6 C 0 km/h
1243 03-07-2020 07:30:00 11.7 C 9.94 g/m*3 11.7 C 0 km/h
1244 03-07-2020 07:35:00 11.8 C 10 g/m*3 11.8 C 1.6 km/h
1245 03-07-2020 07:40:00 12 C 10.23 g/m*3 12 C 1.6 km/h
1246 03-07-2020 07:45:00 12.2 C 10.36 g/m*3 12.2 C 1.6 km/h
1247 03-07-2020 07:50:00 12.3 C 10.42 g/m*3 12.3 C 4.8 km/h
1248 03-07-2020 07:55:00 12.4 C 10.38 g/m*3 12.4 C 4.8 km/h
1249 03-07-2020 08:00:00 12.6 C 10.4 g/m*3 12.6 C 1.6 km/h
1250 03-07-2020 08:05:00 12.7 C 10.46 g/m*3 12.7 C 8.1 km/h
Sensor: Nr:Datum:Temp:Abs-Feuchte:Windchill:Wind:
Aussen-T/F 1251 03-07-2020 08:10:00 12.9 C 10.48 g/m*3 12.9 C 4.8 km/h
1252 03-07-2020 08:15:00 13.2 C 10.56 g/m*3 13.2 C 1.6 km/h
1253 03-07-2020 08:20:00 13.4 C 10.58 g/m*3 13.4 C 8.1 km/h
1254 03-07-2020 08:25:00 13.6 C 10.59 g/m*3 13.6 C 1.6 km/h
1255 03-07-2020 08:30:00 13.8 C 10.48 g/m*3 13.8 C 6.4 km/h
1256 03-07-2020 08:35:00 14.1 C 10.44 g/m*3 14.1 C 4.8 km/h
1257 03-07-2020 08:40:00 14.3 C 10.57 g/m*3 14.3 C 4.8 km/h
1258 03-07-2020 08:45:00 14.6 C 10.51 g/m*3 14.6 C 9.7 km/h
1259 03-07-2020 08:50:00 14.8 C 10.39 g/m*3 14.8 C 8.1 km/h
1260 03-07-2020 08:55:00 14.9 C 10.58 g/m*3 14.9 C 4.8 km/h
1261 03-07-2020 09:00:00 15 C 10.64 g/m*3 15 C 6.4 km/h
1262 03-07-2020 09:05:00 15.1 C 10.45 g/m*3 15.1 C 6.4 km/h
1263 03-07-2020 09:10:00 15.2 C 10.51 g/m*3 15.2 C 0 km/h
1264 03-07-2020 09:15:00 15.3 C 10.58 g/m*3 15.3 C 4.8 km/h
1265 03-07-2020 09:20:00 15.6 C 10.64 g/m*3 15.6 C 4.8 km/h
1266 03-07-2020 09:25:00 15.8 C 10.77 g/m*3 15.8 C 6.4 km/h
1267 03-07-2020 09:30:00 16 C 10.63 g/m*3 16 C 1.6 km/h
1268 03-07-2020 09:35:00 16.2 C 10.76 g/m*3 16.2 C 6.4 km/h
1269 03-07-2020 09:40:00 16.3 C 10.68 g/m*3 16.3 C 4.8 km/h
1270 03-07-2020 09:45:00 16.4 C 10.75 g/m*3 16.4 C 6.4 km/h
1271 03-07-2020 09:50:00 16.6 C 10.88 g/m*3 16.6 C 8.1 km/h
1272 03-07-2020 09:55:00 16.7 C 10.8 g/m*3 16.7 C 8.1 km/h
1273 03-07-2020 10:00:00 16.8 C 10.87 g/m*3 16.8 C 8.1 km/h
1274 03-07-2020 10:05:00 17 C 10.85 g/m*3 17 C 9.7 km/h
1275 03-07-2020 10:10:00 17.2 C 11.28 g/m*3 17.2 C 4.8 km/h
Sensor: Nr:Datum:Temp:Abs-Feuchte:Windchill:Wind:
Aussen-T/F 1276 03-07-2020 10:15:00 17.4 C 11.12 g/m*3 17.4 C 8.1 km/h
1277 03-07-2020 10:20:00 17.6 C 11.25 g/m*3 17.6 C 6.4 km/h
1278 03-07-2020 10:25:00 17.8 C 11.38 g/m*3 17.8 C 3.2 km/h
1279 03-07-2020 10:30:00 18.3 C 11.26 g/m*3 18.3 C 9.7 km/h
1280 03-07-2020 10:35:00 18.6 C 11.46 g/m*3 18.6 C 4.8 km/h
1281 03-07-2020 10:40:00 18.9 C 11.34 g/m*3 18.9 C 4.8 km/h
1282 03-07-2020 10:45:00 19.1 C 11.47 g/m*3 19.1 C 4.8 km/h
1283 03-07-2020 10:50:00 19.3 C 11.44 g/m*3 19.3 C 6.4 km/h
1284 03-07-2020 10:55:00 19.6 C 11.65 g/m*3 19.6 C 11.3 km/h
1285 03-07-2020 11:00:00 19.8 C 11.44 g/m*3 19.8 C 11.3 km/h
1286 03-07-2020 11:05:00 19.8 C 11.44 g/m*3 19.8 C 8.1 km/h
1287 03-07-2020 11:10:00 19.8 C 11.61 g/m*3 19.8 C 6.4 km/h
1288 03-07-2020 11:15:00 19.9 C 11.51 g/m*3 19.9 C 9.7 km/h
1289 03-07-2020 11:20:00 19.9 C 11.51 g/m*3 19.9 C 6.4 km/h
1290 03-07-2020 11:25:00 19.9 C 11.51 g/m*3 19.9 C 9.7 km/h
1291 03-07-2020 11:30:00 19.9 C 11.17 g/m*3 19.9 C 11.3 km/h
1292 03-07-2020 11:35:00 19.9 C 11.34 g/m*3 19.9 C 9.7 km/h
1293 03-07-2020 11:40:00 19.9 C 11.34 g/m*3 19.9 C 6.4 km/h
1294 03-07-2020 11:45:00 19.9 C 11.17 g/m*3 19.9 C 8.1 km/h
1295 03-07-2020 11:50:00 19.9 C 11 g/m*3 19.9 C 11.3 km/h
1296 03-07-2020 11:55:00 19.9 C 11.34 g/m*3 19.9 C 6.4 km/h
1297 03-07-2020 12:00:00 20 C 11.41 g/m*3 20 C 11.3 km/h
1298 03-07-2020 12:05:00 19.9 C 10.82 g/m*3 19.9 C 6.4 km/h
1299 03-07-2020 12:10:00 19.9 C 11.68 g/m*3 19.9 C 1.6 km/h
1300 03-07-2020 12:15:00 20 C 11.23 g/m*3 20 C 4.8 km/h
Sensor: Nr:Datum:Temp:Abs-Feuchte:Windchill:Wind:
Aussen-T/F 1301 03-07-2020 12:20:00 20.1 C 11.65 g/m*3 20.1 C 4.8 km/h
1302 03-07-2020 12:25:00 20.1 C 11.47 g/m*3 20.1 C 4.8 km/h
1303 03-07-2020 12:30:00 20.2 C 11.19 g/m*3 20.2 C 8.1 km/h
1304 03-07-2020 12:35:00 20.2 C 11.02 g/m*3 20.2 C 1.6 km/h
1305 03-07-2020 12:40:00 20.3 C 10.9 g/m*3 20.3 C 12.9 km/h
1306 03-07-2020 12:45:00 20.3 C 10.9 g/m*3 20.3 C 12.9 km/h
1307 03-07-2020 12:50:00 20.4 C 10.97 g/m*3 20.4 C 11.3 km/h
1308 03-07-2020 12:55:00 20.3 C 10.73 g/m*3 20.3 C 12.9 km/h
1309 03-07-2020 13:00:00 20.4 C 10.79 g/m*3 20.4 C 8.1 km/h
1310 03-07-2020 13:05:00 20.6 C 11.28 g/m*3 20.6 C 4.8 km/h
1311 03-07-2020 13:10:00 20.8 C 11.05 g/m*3 20.8 C 1.6 km/h
1312 03-07-2020 13:15:00 20.9 C 10.93 g/m*3 20.9 C 6.4 km/h
1313 03-07-2020 13:20:00 20.9 C 10.93 g/m*3 20.9 C 11.3 km/h
1314 03-07-2020 13:25:00 20.9 C 10.93 g/m*3 20.9 C 11.3 km/h
1315 03-07-2020 13:30:00 21.1 C 11.61 g/m*3 21.1 C 4.8 km/h
1316 03-07-2020 13:35:00 21.3 C 11.37 g/m*3 21.3 C 8.1 km/h
1317 03-07-2020 13:40:00 21.4 C 10.87 g/m*3 21.4 C 11.3 km/h
1318 03-07-2020 13:45:00 21.4 C 10.87 g/m*3 21.4 C 6.4 km/h
1319 03-07-2020 13:50:00 21.4 C 11.06 g/m*3 21.4 C 8.1 km/h
1320 03-07-2020 13:55:00 21.6 C 11 g/m*3 21.6 C 9.7 km/h
1321 03-07-2020 14:00:00 21.7 C 10.87 g/m*3 21.7 C 6.4 km/h
1322 03-07-2020 14:05:00 21.8 C 10.74 g/m*3 21.8 C 9.7 km/h
1323 03-07-2020 14:10:00 21.8 C 10.74 g/m*3 21.8 C 12.9 km/h
1324 03-07-2020 14:15:00 21.9 C 10.61 g/m*3 21.9 C 9.7 km/h
1325 03-07-2020 14:20:00 22.1 C 10.74 g/m*3 22.1 C 6.4 km/h
Sensor: Nr:Datum:Temp:Abs-Feuchte:Windchill:Wind:
Aussen-T/F 1326 03-07-2020 14:25:00 22.2 C 11.39 g/m*3 22.2 C 4.8 km/h
1327 03-07-2020 14:30:00 22.3 C 11.26 g/m*3 22.3 C 9.7 km/h
1328 03-07-2020 14:35:00 22.3 C 11.06 g/m*3 22.3 C 16.1 km/h
1329 03-07-2020 14:40:00 22.4 C 11.52 g/m*3 22.4 C 14.5 km/h
1330 03-07-2020 14:45:00 22.8 C 10.77 g/m*3 22.8 C 16.1 km/h
1331 03-07-2020 14:50:00 22.9 C 10.63 g/m*3 22.9 C 11.3 km/h
1332 03-07-2020 14:55:00 22.8 C 10.57 g/m*3 22.8 C 8.1 km/h
1333 03-07-2020 15:00:00 22.7 C 10.51 g/m*3 22.7 C 16.1 km/h
1334 03-07-2020 15:05:00 22.7 C 10.71 g/m*3 22.7 C 16.1 km/h
1335 03-07-2020 15:10:00 22.6 C 10.65 g/m*3 22.6 C 9.7 km/h
1336 03-07-2020 15:15:00 22.7 C 11.31 g/m*3 22.7 C 12.9 km/h
1337 03-07-2020 15:20:00 23.1 C 10.96 g/m*3 23.1 C 16.1 km/h
1338 03-07-2020 15:25:00 23.4 C 10.93 g/m*3 23.4 C 12.9 km/h
1339 03-07-2020 15:30:00 23.5 C 11.42 g/m*3 23.5 C 6.4 km/h
1340 03-07-2020 15:35:00 23.7 C 11.12 g/m*3 23.7 C 14.5 km/h
1341 03-07-2020 15:40:00 24 C 10.88 g/m*3 24 C 12.9 km/h
1342 03-07-2020 15:45:00 24.6 C 11.03 g/m*3 24.6 C 12.9 km/h
1343 03-07-2020 15:50:00 24.7 C 10.64 g/m*3 24.7 C 14.5 km/h
1344 03-07-2020 15:55:00 24.2 C 10.56 g/m*3 24.2 C 14.5 km/h
1345 03-07-2020 16:00:00 23.8 C 10.33 g/m*3 23.8 C 8.1 km/h
1346 03-07-2020 16:05:00 23.9 C 10.6 g/m*3 23.9 C 11.3 km/h
1347 03-07-2020 16:10:00 23.9 C 10.17 g/m*3 23.9 C 11.3 km/h
1348 03-07-2020 16:15:00 23.7 C 10.91 g/m*3 23.7 C 14.5 km/h
1349 03-07-2020 16:20:00 24.3 C 10.4 g/m*3 24.3 C 16.1 km/h
1350 03-07-2020 16:25:00 24.7 C 10.41 g/m*3 24.7 C 11.3 km/h
Sensor: Nr:Datum:Temp:Abs-Feuchte:Windchill:Wind:
Aussen-T/F 1351 03-07-2020 16:30:00 24.4 C 10.46 g/m*3 24.4 C 6.4 km/h
1352 03-07-2020 16:35:00 23.9 C 10.17 g/m*3 23.9 C 9.7 km/h
1353 03-07-2020 16:40:00 23.4 C 10.3 g/m*3 23.4 C 12.9 km/h
1354 03-07-2020 16:45:00 23.4 C 10.93 g/m*3 23.4 C 11.3 km/h
1355 03-07-2020 16:50:00 24.1 C 10.5 g/m*3 24.1 C 20.9 km/h
1356 03-07-2020 16:55:00 24.8 C 10.24 g/m*3 24.8 C 20.9 km/h
1357 03-07-2020 17:00:00 25.1 C 10.19 g/m*3 25.1 C 14.5 km/h
1358 03-07-2020 17:05:00 25.3 C 10.53 g/m*3 25.3 C 9.7 km/h
1359 03-07-2020 17:10:00 25.3 C 10.77 g/m*3 25.3 C 17.7 km/h
1360 03-07-2020 17:15:00 25.2 C 10.24 g/m*3 25.2 C 16.1 km/h
1361 03-07-2020 17:20:00 24.6 C 10.35 g/m*3 24.6 C 19.3 km/h
1362 03-07-2020 17:25:00 24.3 C 10.62 g/m*3 24.3 C 16.1 km/h
1363 03-07-2020 17:30:00 24 C 10.23 g/m*3 24 C 17.7 km/h
1364 03-07-2020 17:35:00 23.5 C 10.36 g/m*3 23.5 C 9.7 km/h
1365 03-07-2020 17:40:00 23.1 C 10.13 g/m*3 23.1 C 9.7 km/h
1366 03-07-2020 17:45:00 22.9 C 10.63 g/m*3 22.9 C 9.7 km/h
1367 03-07-2020 17:50:00 22.9 C 10.42 g/m*3 22.9 C 9.7 km/h
1368 03-07-2020 17:55:00 22.9 C 10.83 g/m*3 22.9 C 8.1 km/h
1369 03-07-2020 18:00:00 23.2 C 10.81 g/m*3 23.2 C 6.4 km/h
1370 03-07-2020 18:05:00 23.9 C 10.17 g/m*3 23.9 C 11.3 km/h
1371 03-07-2020 18:10:00 24 C 10.44 g/m*3 24 C 14.5 km/h
1372 03-07-2020 18:15:00 23.7 C 10.48 g/m*3 23.7 C 11.3 km/h
1373 03-07-2020 18:20:00 23.9 C 10.6 g/m*3 23.9 C 12.9 km/h
1374 03-07-2020 18:25:00 23.9 C 10.6 g/m*3 23.9 C 8.1 km/h
1375 03-07-2020 18:30:00 24.1 C 10.28 g/m*3 24.1 C 6.4 km/h
Sensor: Nr:Datum:Temp:Abs-Feuchte:Windchill:Wind:
Aussen-T/F 1376 03-07-2020 18:35:00 24.6 C 10.35 g/m*3 24.6 C 12.9 km/h
1377 03-07-2020 18:40:00 25 C 10.36 g/m*3 25 C 12.9 km/h
1378 03-07-2020 18:45:00 24.4 C 10.01 g/m*3 24.4 C 12.9 km/h
1379 03-07-2020 18:50:00 23.8 C 10.33 g/m*3 23.8 C 8.1 km/h
1380 03-07-2020 18:55:00 23.3 C 10.04 g/m*3 23.3 C 4.8 km/h
1381 03-07-2020 19:00:00 23.1 C 10.75 g/m*3 23.1 C 1.6 km/h
1382 03-07-2020 19:05:00 23.2 C 10.6 g/m*3 23.2 C 9.7 km/h
1383 03-07-2020 19:10:00 23.9 C 10.17 g/m*3 23.9 C 14.5 km/h
1384 03-07-2020 19:15:00 24.4 C 9.79 g/m*3 24.4 C 12.9 km/h
1385 03-07-2020 19:20:00 24.4 C 9.79 g/m*3 24.4 C 11.3 km/h
1386 03-07-2020 19:25:00 24.2 C 9.9 g/m*3 24.2 C 11.3 km/h
1387 03-07-2020 19:30:00 24.1 C 9.85 g/m*3 24.1 C 11.3 km/h
1388 03-07-2020 19:35:00 24.1 C 10.06 g/m*3 24.1 C 9.7 km/h
1389 03-07-2020 19:40:00 24.1 C 9.85 g/m*3 24.1 C 14.5 km/h
1390 03-07-2020 19:45:00 23.8 C 9.68 g/m*3 23.8 C 17.7 km/h
1391 03-07-2020 19:50:00 23.7 C 10.05 g/m*3 23.7 C 9.7 km/h
1392 03-07-2020 19:55:00 23.4 C 9.88 g/m*3 23.4 C 12.9 km/h
1393 03-07-2020 20:00:00 23.4 C 9.67 g/m*3 23.4 C 11.3 km/h
1394 03-07-2020 20:05:00 23.2 C 9.56 g/m*3 23.2 C 17.7 km/h
1395 03-07-2020 20:10:00 22.9 C 9.81 g/m*3 22.9 C 14.5 km/h
1396 03-07-2020 20:15:00 22.7 C 9.9 g/m*3 22.7 C 19.3 km/h
1397 03-07-2020 20:20:00 22.5 C 9.79 g/m*3 22.5 C 12.9 km/h
1398 03-07-2020 20:25:00 22.3 C 9.87 g/m*3 22.3 C 11.3 km/h
1399 03-07-2020 20:30:00 22.2 C 10.01 g/m*3 22.2 C 11.3 km/h
1400 03-07-2020 20:35:00 22 C 10.48 g/m*3 22 C 9.7 km/h
Sensor: Nr:Datum:Temp:Abs-Feuchte:Windchill:Wind:
Aussen-T/F 1401 03-07-2020 20:40:00 21.7 C 10.11 g/m*3 21.7 C 6.4 km/h
1402 03-07-2020 20:45:00 21.4 C 10.12 g/m*3 21.4 C 4.8 km/h
1403 03-07-2020 20:50:00 21.2 C 10.01 g/m*3 21.2 C 6.4 km/h
1404 03-07-2020 20:55:00 21 C 10.44 g/m*3 21 C 4.8 km/h
1405 03-07-2020 21:00:00 20.9 C 10.75 g/m*3 20.9 C 3.2 km/h
1406 03-07-2020 21:05:00 20.7 C 10.8 g/m*3 20.7 C 4.8 km/h
1407 03-07-2020 21:10:00 20.6 C 10.92 g/m*3 20.6 C 0 km/h
1408 03-07-2020 21:15:00 20.3 C 10.73 g/m*3 20.3 C 3.2 km/h
1409 03-07-2020 21:20:00 20.1 C 10.78 g/m*3 20.1 C 4.8 km/h
1410 03-07-2020 21:25:00 19.8 C 10.93 g/m*3 19.8 C 4.8 km/h
1411 03-07-2020 21:30:00 19.5 C 10.91 g/m*3 19.5 C 4.8 km/h
1412 03-07-2020 21:35:00 19.2 C 10.72 g/m*3 19.2 C 6.4 km/h
1413 03-07-2020 21:40:00 18.9 C 10.69 g/m*3 18.9 C 4.8 km/h
1414 03-07-2020 21:45:00 18.7 C 10.89 g/m*3 18.7 C 4.8 km/h
1415 03-07-2020 21:50:00 18.4 C 10.7 g/m*3 18.4 C 4.8 km/h
1416 03-07-2020 21:55:00 18.2 C 10.72 g/m*3 18.2 C 4.8 km/h
1417 03-07-2020 22:00:00 17.9 C 10.69 g/m*3 17.9 C 4.8 km/h
1418 03-07-2020 22:05:00 17.8 C 10.78 g/m*3 17.8 C 0 km/h
1419 03-07-2020 22:10:00 17.5 C 10.73 g/m*3 17.5 C 0 km/h
1420 03-07-2020 22:15:00 17.2 C 10.54 g/m*3 17.2 C 0 km/h
1421 03-07-2020 22:20:00 17.1 C 10.63 g/m*3 17.1 C 1.6 km/h
1422 03-07-2020 22:25:00 16.8 C 10.58 g/m*3 16.8 C 4.8 km/h
1423 03-07-2020 22:30:00 16.7 C 10.52 g/m*3 16.7 C 6.4 km/h
1424 03-07-2020 22:35:00 16.6 C 10.45 g/m*3 16.6 C 6.4 km/h
1425 03-07-2020 22:40:00 16.5 C 10.53 g/m*3 16.5 C 6.4 km/h
Sensor: Nr:Datum:Temp:Abs-Feuchte:Windchill:Wind:
Aussen-T/F 1426 03-07-2020 22:45:00 16.4 C 10.47 g/m*3 16.4 C 4.8 km/h
1427 03-07-2020 22:50:00 16.3 C 10.41 g/m*3 16.3 C 6.4 km/h
1428 03-07-2020 22:55:00 16.2 C 10.48 g/m*3 16.2 C 4.8 km/h
1429 03-07-2020 23:00:00 16.1 C 10.42 g/m*3 16.1 C 3.2 km/h
1430 03-07-2020 23:05:00 16 C 10.49 g/m*3 16 C 4.8 km/h
1431 03-07-2020 23:10:00 15.8 C 10.36 g/m*3 15.8 C 4.8 km/h
1432 03-07-2020 23:15:00 15.7 C 10.44 g/m*3 15.7 C 4.8 km/h
1433 03-07-2020 23:20:00 15.6 C 10.37 g/m*3 15.6 C 0 km/h
1434 03-07-2020 23:25:00 15.4 C 10.38 g/m*3 15.4 C 0 km/h
1435 03-07-2020 23:30:00 15.3 C 10.45 g/m*3 15.3 C 0 km/h
1436 03-07-2020 23:35:00 15.2 C 10.38 g/m*3 15.2 C 0 km/h
1437 03-07-2020 23:40:00 15.2 C 10.51 g/m*3 15.2 C 0 km/h
1438 03-07-2020 23:45:00 15.1 C 10.45 g/m*3 15.1 C 0 km/h
1439 03-07-2020 23:50:00 14.9 C 10.32 g/m*3 14.9 C 0 km/h
1440 03-07-2020 23:55:00 14.9 C 10.32 g/m*3 14.9 C 0 km/h

Legende:
   Min
   Max


Maximal/Minimal-Werte vom 29.06.2020 - 03.07.2020

Sensor Min Max Avg
Temp
(Aussen-T/F)
9.7 °C
30-06-2020  05:55:00
26.4 °C
01-07-2020  17:40:00
18.47 °C
Abs-Feuchte
(Aussen-T/F)
8.35 g/m*3
30-06-2020  05:40:00
15.53 g/m*3
02-07-2020  10:00:00
11.44 g/m*3
Windchill
(Aussen-T/F)
9.7 C
30-06-2020  05:55:00
26.4 C
01-07-2020  17:40:00
18.46 C

Die Daten stammen von einer Davis Vantage Pro 2 Wetter-Station und werden unter Linux mit der Software wview2wettercgi und aufbereitet. Alle Angaben erfolgen ohne Gewähr für ihre Vollständigkeit oder Richtigkeit.
Kontakt: Rainer Krienke krienke@uni-koblenz.de . Meine Webseiten an der Uni Koblenz oder privat.
Version: $Revision: 0.78 $